Observation data for Palo Duro Reservoir 1NW on 07/05/2020      Previous  Date       Current Mesonet Observations  Soil Data  Daily Summary Page  Observations in Plain Language
KPD4 050500Z 19004KT 24/16 A3004 RMK A01 T02400156  RH  059%=      5-min Rain = 0
KPD4 050501Z 18005KT 24/16 A3004 RMK A01 T02390156  RH  060%=      5-min Rain = 0
KPD4 050502Z 18005KT 24/16 A3004 RMK A01 T02390157  RH  060%=      5-min Rain = 0
KPD4 050503Z 17006KT 24/16 A3004 RMK A01 T02390157  RH  060%=      5-min Rain = 0
KPD4 050504Z 17005KT 24/16 A3004 RMK A01 T02390157  RH  060%=      5-min Rain = 0
KPD4 050505Z 16005KT 24/16 A3004 RMK A01 T02390158  RH  060%=      5-min Rain = 0
KPD4 050506Z 16005KT 24/16 A3004 RMK A01 T02400158  RH  060%=      5-min Rain = 0
KPD4 050507Z 17004KT 24/16 A3004 RMK A01 T02400158  RH  060%=      5-min Rain = 0
KPD4 050508Z 16004KT 24/16 A3004 RMK A01 T02410158  RH  060%=      5-min Rain = 0
KPD4 050509Z 15004KT 24/16 A3004 RMK A01 T02400158  RH  060%=      5-min Rain = 0
KPD4 050510Z 17006KT 24/16 A3004 RMK A01 T02400158  RH  060%=      5-min Rain = 0
KPD4 050511Z 16005KT 24/16 A3004 RMK A01 T02400158  RH  060%=      5-min Rain = 0
KPD4 050512Z 17005KT 24/16 A3004 RMK A01 T02410158  RH  060%=      5-min Rain = 0
KPD4 050513Z 17003KT 24/16 A3004 RMK A01 T02410159  RH  060%=      5-min Rain = 0
KPD4 050514Z 20003KT 24/16 A3004 RMK A01 T02420159  RH  060%=      5-min Rain = 0
KPD4 050515Z 21004KT 24/16 A3004 RMK A01 T02410159  RH  060%=      5-min Rain = 0
KPD4 050516Z 23003KT 24/16 A3004 RMK A01 T02400158  RH  060%=      5-min Rain = 0
KPD4 050517Z 23004KT 24/16 A3004 RMK A01 T02390158  RH  060%=      5-min Rain = 0
KPD4 050518Z 21004KT 24/16 A3004 RMK A01 T02390157  RH  060%=      5-min Rain = 0
KPD4 050519Z 21004KT 24/16 A3004 RMK A01 T02390157  RH  060%=      5-min Rain = 0
KPD4 050520Z 21005KT 24/16 A3004 RMK A01 T02390157  RH  060%=      5-min Rain = 0
KPD4 050521Z 21005KT 24/16 A3005 RMK A01 T02400157  RH  060%=      5-min Rain = 0
KPD4 050522Z 21005KT 24/16 A3005 RMK A01 T02390158  RH  060%=      5-min Rain = 0
KPD4 050523Z 22004KT 24/16 A3005 RMK A01 T02390158  RH  060%=      5-min Rain = 0
KPD4 050524Z 22005KT 24/16 A3005 RMK A01 T02380158  RH  061%=      5-min Rain = 0
KPD4 050525Z 21005KT 24/16 A3005 RMK A01 T02380158  RH  061%=      5-min Rain = 0
KPD4 050526Z 22004KT 24/16 A3005 RMK A01 T02370158  RH  061%=      5-min Rain = 0
KPD4 050527Z 22005KT 24/16 A3005 RMK A01 T02370158  RH  061%=      5-min Rain = 0
KPD4 050528Z 22004KT 24/16 A3005 RMK A01 T02360158  RH  061%=      5-min Rain = 0
KPD4 050529Z 22004KT 24/16 A3005 RMK A01 T02360158  RH  061%=      5-min Rain = 0
KPD4 050530Z 22004KT 24/16 A3005 RMK A01 T02360158  RH  061%=      5-min Rain = 0
KPD4 050531Z 22004KT 24/16 A3005 RMK A01 T02360158  RH  061%=      5-min Rain = 0
KPD4 050532Z 22004KT 24/16 A3005 RMK A01 T02360158  RH  061%=      5-min Rain = 0
KPD4 050533Z 22004KT 24/16 A3005 RMK A01 T02360158  RH  062%=      5-min Rain = 0
KPD4 050534Z 22004KT 24/16 A3005 RMK A01 T02360158  RH  062%=      5-min Rain = 0
KPD4 050535Z 21004KT 24/16 A3005 RMK A01 T02360158  RH  062%=      5-min Rain = 0
KPD4 050536Z 22004KT 24/16 A3005 RMK A01 T02360159  RH  062%=      5-min Rain = 0
KPD4 050537Z 22004KT 24/16 A3005 RMK A01 T02360159  RH  062%=      5-min Rain = 0
KPD4 050538Z 22004KT 24/16 A3005 RMK A01 T02350159  RH  062%=      5-min Rain = 0
KPD4 050539Z 22004KT 24/16 A3005 RMK A01 T02350159  RH  062%=      5-min Rain = 0
KPD4 050540Z 22004KT 24/16 A3005 RMK A01 T02350160  RH  063%=      5-min Rain = 0
KPD4 050541Z 22005KT 23/16 A3005 RMK A01 T02340160  RH  063%=      5-min Rain = 0
KPD4 050542Z 22004KT 23/16 A3005 RMK A01 T02330160  RH  063%=      5-min Rain = 0
KPD4 050543Z 22005KT 23/16 A3005 RMK A01 T02330160  RH  063%=      5-min Rain = 0
KPD4 050544Z 23005KT 23/16 A3005 RMK A01 T02330160  RH  064%=      5-min Rain = 0
KPD4 050545Z 23005KT 23/16 A3005 RMK A01 T02330160  RH  064%=      5-min Rain = 0
KPD4 050546Z 23004KT 23/16 A3005 RMK A01 T02340161  RH  064%=      5-min Rain = 0
KPD4 050547Z 23005KT 23/16 A3005 RMK A01 T02340161  RH  064%=      5-min Rain = 0
KPD4 050548Z 23005KT 23/16 A3005 RMK A01 T02340162  RH  064%=      5-min Rain = 0
KPD4 050549Z 23005KT 24/16 A3005 RMK A01 T02350162  RH  064%=      5-min Rain = 0
KPD4 050550Z 23006KT 24/16 A3005 RMK A01 T02350162  RH  064%=      5-min Rain = 0
KPD4 050551Z 23006KT 24/16 A3005 RMK A01 T02350163  RH  064%=      5-min Rain = 0
KPD4 050552Z 23006KT 24/16 A3005 RMK A01 T02350163  RH  064%=      5-min Rain = 0
KPD4 050553Z 22005KT 24/16 A3005 RMK A01 T02360164  RH  064%=      5-min Rain = 0
KPD4 050554Z 22005KT 24/17 A3005 RMK A01 T02360165  RH  064%=      5-min Rain = 0
KPD4 050555Z 22005KT 24/17 A3005 RMK A01 T02370166  RH  064%=      5-min Rain = 0
KPD4 050556Z 22006KT 24/17 A3005 RMK A01 T02380168  RH  065%=      5-min Rain = 0
KPD4 050557Z 22006KT 24/17 A3005 RMK A01 T02390168  RH  065%=      5-min Rain = 0
KPD4 050558Z 22006KT 24/17 A3005 RMK A01 T02400168  RH  064%=      5-min Rain = 0
KPD4 050559Z 23006KT 24/17 A3005 RMK A01 T02400169  RH  064%=      5-min Rain = 0
KPD4 050600Z 23007KT 24/17 A3005 RMK A01 T02400169  RH  065%=      5-min Rain = 0
KPD4 050601Z 23008KT 24/17 A3005 RMK A01 T02400170  RH  065%=      5-min Rain = 0
KPD4 050602Z 23008KT 24/17 A3006 RMK A01 T02410171  RH  065%=      5-min Rain = 0
KPD4 050603Z 23009KT 24/17 A3006 RMK A01 T02420171  RH  064%=      5-min Rain = 0
KPD4 050604Z 23011KT 24/17 A3006 RMK A01 T02430171  RH  064%=      5-min Rain = 0
KPD4 050605Z 23011KT 24/17 A3006 RMK A01 T02440171  RH  064%=      5-min Rain = 0
KPD4 050606Z 23010KT 25/17 A3006 RMK A01 T02450171  RH  063%=      5-min Rain = 0
KPD4 050607Z 24015G21KT 25/17 A3007 RMK A01 T02450171  RH  063%=      5-min Rain = 0
KPD4 050608Z 23016KT 25/17 A3007 RMK A01 T02460172  RH  063%=      5-min Rain = 0
KPD4 050609Z 24019KT 25/17 A3007 RMK A01 T02470174  RH  064%=      5-min Rain = 0
KPD4 050610Z 24020G25KT 25/18 A3007 RMK A01 T02480176  RH  064%=      5-min Rain = 0
KPD4 050611Z 26025G31KT 25/17 A3007 RMK A01 T02470173  RH  063%=      5-min Rain = 0
KPD4 050612Z 28024G29KT 24/17 A3007 RMK A01 T02430167  RH  063%=      5-min Rain = 0
KPD4 050613Z 30023KT 24/17 A3007 RMK A01 T02390165  RH  063%=      5-min Rain = 0
KPD4 050614Z 29023KT 24/16 A3007 RMK A01 T02370163  RH  063%=      5-min Rain = 0
KPD4 050615Z 30020KT 24/16 A3007 RMK A01 T02350163  RH  064%=      5-min Rain = 0
KPD4 050616Z 30021KT 23/16 A3007 RMK A01 T02330163  RH  065%=      5-min Rain = 0
KPD4 050617Z 30021KT 23/16 A3007 RMK A01 T02330164  RH  065%=      5-min Rain = 0
KPD4 050618Z 29019KT 23/17 A3008 RMK A01 T02330165  RH  066%=      5-min Rain = 0
KPD4 050619Z 29023G29KT 23/17 A3008 RMK A01 T02310167  RH  067%=      5-min Rain = 0
KPD4 050620Z 28023G28KT 23/17 A3008 RMK A01 T02280168  RH  069%=      5-min Rain = 0
KPD4 050621Z 28023KT 23/17 A3009 RMK A01 T02260170  RH  070%=      5-min Rain = 0
KPD4 050622Z 28025KT 23/17 A3009 RMK A01 T02250171  RH  071%=      5-min Rain = 0
KPD4 050623Z 28022G27KT 22/17 A3009 RMK A01 T02240171  RH  072%=      5-min Rain = 0
KPD4 050624Z 29025KT 22/17 A3009 RMK A01 T02230172  RH  072%=      5-min Rain = 0
KPD4 050625Z 29024G29KT 22/17 A3009 RMK A01 T02230172  RH  073%=      5-min Rain = 0
KPD4 050626Z 29025G30KT 22/17 A3009 RMK A01 T02220172  RH  073%=      5-min Rain = 0
KPD4 050627Z 29022KT 22/17 A3009 RMK A01 T02220172  RH  073%=      5-min Rain = 0
KPD4 050628Z 29021KT 22/17 A3009 RMK A01 T02220173  RH  074%=      5-min Rain = 0
KPD4 050629Z 30026G31KT 22/17 A3009 RMK A01 T02210173  RH  074%=      5-min Rain = 0
KPD4 050630Z 30026G31KT 22/17 A3009 RMK A01 T02210173  RH  075%=      5-min Rain = 0
KPD4 050631Z 29026G31KT 22/17 A3009 RMK A01 T02200174  RH  075%=      5-min Rain = 0
KPD4 050632Z 29024KT 22/17 A3009 RMK A01 T02200174  RH  075%=      5-min Rain = 0
KPD4 050633Z 29023G29KT 22/17 A3009 RMK A01 T02190174  RH  076%=      5-min Rain = 0
KPD4 050634Z 29024KT 22/17 A3009 RMK A01 T02180174  RH  076%=      5-min Rain = 0
KPD4 050635Z 29018KT 22/18 A301 RMK A01 T02180175  RH  076%=      5-min Rain = 0
KPD4 050636Z 29019KT 22/18 A301 RMK A01 T02180175  RH  077%=      5-min Rain = 0
KPD4 050637Z 29021KT 22/18 A301 RMK A01 T02170175  RH  077%=      5-min Rain = 0
KPD4 050638Z 29019KT 22/18 A301 RMK A01 T02160175  RH  077%=      5-min Rain = 0
KPD4 050639Z 29019KT 22/18 A301 RMK A01 T02160176  RH  078%=      5-min Rain = 0
KPD4 050640Z 30018KT 22/18 A301 RMK A01 T02150176  RH  078%=      5-min Rain = 0
KPD4 050641Z 30023KT 22/18 A3009 RMK A01 T02150176  RH  078%=      5-min Rain = 0
KPD4 050642Z 30023KT 21/18 A3009 RMK A01 T02140176  RH  079%=      5-min Rain = 0
KPD4 050643Z 30021KT 21/18 A3009 RMK A01 T02140176  RH  079%=      5-min Rain = 0
KPD4 050644Z 30022KT 21/18 A3009 RMK A01 T02130177  RH  080%=      5-min Rain = 0
KPD4 050645Z 30020G25KT 21/18 A3009 RMK A01 T02130177  RH  080%=      5-min Rain = 0
KPD4 050646Z 30021KT 21/18 A3009 RMK A01 T02120177  RH  081%=      5-min Rain = 0
KPD4 050647Z 30020KT 21/18 A3009 RMK A01 T02110178  RH  081%=      5-min Rain = 0
KPD4 050648Z 30018KT 21/18 A3009 RMK A01 T02110178  RH  082%=      5-min Rain = 0
KPD4 050649Z 30016KT 21/18 A3009 RMK A01 T02100179  RH  082%=      5-min Rain = 0
KPD4 050650Z 30015KT 21/18 A3009 RMK A01 T02100179  RH  082%=      5-min Rain = 0
KPD4 050651Z 30016KT 21/18 A3009 RMK A01 T02100179  RH  083%=      5-min Rain = 0
KPD4 050652Z 30018KT 21/18 A3009 RMK A01 T02100179  RH  083%=      5-min Rain = 0
KPD4 050653Z 29015KT 21/18 A3009 RMK A01 T02090179  RH  083%=      5-min Rain = 0
KPD4 050654Z 29015KT 21/18 A3009 RMK A01 T02090179  RH  083%=      5-min Rain = 0
KPD4 050655Z 29019KT 21/18 A3009 RMK A01 T02080178  RH  083%=      5-min Rain = 0
KPD4 050656Z 29016KT 21/18 A3009 RMK A01 T02080177  RH  083%=      5-min Rain = 0
KPD4 050657Z 29018KT 21/18 A3009 RMK A01 T02080176  RH  082%=      5-min Rain = 0
KPD4 050658Z 29019KT 21/18 A3009 RMK A01 T02070175  RH  082%=      5-min Rain = 0
KPD4 050659Z 30015KT 21/17 A3009 RMK A01 T02060174  RH  082%=      5-min Rain = 0
KPD4 050700Z 29014KT 21/17 A3009 RMK A01 T02060174  RH  082%=      5-min Rain = 0
KPD4 050701Z 30016KT 21/17 A3009 RMK A01 T02060174  RH  082%=      5-min Rain = 0
KPD4 050702Z 29017KT 21/17 A3009 RMK A01 T02050174  RH  082%=      5-min Rain = 0
KPD4 050703Z 30017KT 21/17 A3009 RMK A01 T02050174  RH  082%=      5-min Rain = 0
KPD4 050704Z 30016KT 21/17 A3009 RMK A01 T02050174  RH  082%=      5-min Rain = 0
KPD4 050705Z 30016KT 21/17 A3009 RMK A01 T02050174  RH  083%=      5-min Rain = 0
KPD4 050706Z 30016KT 20/17 A3009 RMK A01 T02040174  RH  083%=      5-min Rain = 0
KPD4 050707Z 30014KT 20/17 A3009 RMK A01 T02040174  RH  083%=      5-min Rain = 0
KPD4 050708Z 30016KT 20/17 A3009 RMK A01 T02040174  RH  083%=      5-min Rain = 0
KPD4 050709Z 30015KT 20/17 A3009 RMK A01 T02040174  RH  083%=      5-min Rain = 0
KPD4 050710Z 30014KT 20/17 A3009 RMK A01 T02040174  RH  083%=      5-min Rain = 0
KPD4 050711Z 30015KT 20/17 A3009 RMK A01 T02040174  RH  083%=      5-min Rain = 0
KPD4 050712Z 29015KT 20/17 A3009 RMK A01 T02040174  RH  083%=      5-min Rain = 0
KPD4 050713Z 29017KT 20/17 A3009 RMK A01 T02040174  RH  083%=      5-min Rain = 0
KPD4 050714Z 29017KT 20/17 A3008 RMK A01 T02040174  RH  083%=      5-min Rain = 0
KPD4 050715Z 29017KT 20/17 A3008 RMK A01 T02040174  RH  083%=      5-min Rain = 0
KPD4 050716Z 30015KT 20/17 A3008 RMK A01 T02040174  RH  083%=      5-min Rain = 0
KPD4 050717Z 30014KT 20/17 A3008 RMK A01 T02040174  RH  083%=      5-min Rain = 0
KPD4 050718Z 29016KT 20/17 A3008 RMK A01 T02040174  RH  083%=      5-min Rain = 0
KPD4 050719Z 29015KT 20/17 A3008 RMK A01 T02040174  RH  083%=      5-min Rain = 0
KPD4 050720Z 29015KT 20/17 A3008 RMK A01 T02030174  RH  083%=      5-min Rain = 0
KPD4 050721Z 29014KT 20/17 A3008 RMK A01 T02030174  RH  083%=      5-min Rain = 0
KPD4 050722Z 29014KT 20/17 A3008 RMK A01 T02030174  RH  083%=      5-min Rain = 0
KPD4 050723Z 30015KT 20/17 A3008 RMK A01 T02040174  RH  083%=      5-min Rain = 0
KPD4 050724Z 30016KT 20/18 A3008 RMK A01 T02040175  RH  083%=      5-min Rain = 0
KPD4 050725Z 30014KT 20/17 A3008 RMK A01 T02030174  RH  083%=      5-min Rain = 0
KPD4 050726Z 30016KT 20/17 A3008 RMK A01 T02030174  RH  083%=      5-min Rain = 0
KPD4 050727Z 30015KT 20/17 A3008 RMK A01 T02030174  RH  084%=      5-min Rain = 0
KPD4 050728Z 30016KT 20/18 A3008 RMK A01 T02030175  RH  084%=      5-min Rain = 0
KPD4 050729Z 30015KT 20/18 A3008 RMK A01 T02030175  RH  084%=      5-min Rain = 0
KPD4 050730Z 30013KT 20/17 A3008 RMK A01 T02030174  RH  084%=      5-min Rain = 0
KPD4 050731Z 30016KT 20/18 A3008 RMK A01 T02030175  RH  084%=      5-min Rain = 0
KPD4 050732Z 30012KT 20/18 A3008 RMK A01 T02030175  RH  084%=      5-min Rain = 0
KPD4 050733Z 30011KT 20/18 A3008 RMK A01 T02030175  RH  084%=      5-min Rain = 0
KPD4 050734Z 29013KT 20/18 A3008 RMK A01 T02030175  RH  084%=      5-min Rain = 0
KPD4 050735Z 29013KT 20/18 A3008 RMK A01 T02020175  RH  084%=      5-min Rain = 0
KPD4 050736Z 29012KT 20/18 A3008 RMK A01 T02030175  RH  084%=      5-min Rain = 0
KPD4 050737Z 29013KT 20/18 A3008 RMK A01 T02020175  RH  084%=      5-min Rain = 0
KPD4 050738Z 29011KT 20/17 A3008 RMK A01 T02020174  RH  084%=      5-min Rain = 0
KPD4 050739Z 29011KT 20/18 A3008 RMK A01 T02020175  RH  084%=      5-min Rain = 0
KPD4 050740Z 29013KT 20/18 A3008 RMK A01 T02020175  RH  084%=      5-min Rain = 0
KPD4 050741Z 29011KT 20/17 A3008 RMK A01 T02020174  RH  084%=      5-min Rain = 0
KPD4 050742Z 29012KT 20/17 A3008 RMK A01 T02030174  RH  084%=      5-min Rain = 0
KPD4 050743Z 29013KT 20/17 A3008 RMK A01 T02020174  RH  083%=      5-min Rain = 0
KPD4 050744Z 29012KT 20/17 A3008 RMK A01 T02030174  RH  084%=      5-min Rain = 0
KPD4 050745Z 29012KT 20/17 A3008 RMK A01 T02030174  RH  084%=      5-min Rain = 0
KPD4 050746Z 29011KT 20/18 A3008 RMK A01 T02030175  RH  084%=      5-min Rain = 0
KPD4 050747Z 29012KT 20/18 A3008 RMK A01 T02030175  RH  084%=      5-min Rain = 0
KPD4 050748Z 29011KT 20/18 A3008 RMK A01 T02030175  RH  084%=      5-min Rain = 0
KPD4 050749Z 29009KT 20/18 A3008 RMK A01 T02030175  RH  084%=      5-min Rain = 0
KPD4 050750Z 28011KT 20/18 A3008 RMK A01 T02030175  RH  084%=      5-min Rain = 0
KPD4 050751Z 28011KT 20/17 A3007 RMK A01 T02030174  RH  084%=      5-min Rain = 0
KPD4 050752Z 28010KT 20/17 A3007 RMK A01 T02030174  RH  084%=      5-min Rain = 0
KPD4 050753Z 27009KT 20/17 A3007 RMK A01 T02030174  RH  083%=      5-min Rain = 0
KPD4 050754Z 28009KT 20/18 A3007 RMK A01 T02040175  RH  083%=      5-min Rain = 0
KPD4 050755Z 28009KT 20/18 A3007 RMK A01 T02040175  RH  083%=      5-min Rain = 0
KPD4 050756Z 27008KT 20/18 A3007 RMK A01 T02030175  RH  083%=      5-min Rain = 0
KPD4 050757Z 27009KT 20/17 A3007 RMK A01 T02030174  RH  083%=      5-min Rain = 0
KPD4 050758Z 27010KT 20/17 A3007 RMK A01 T02030174  RH  083%=      5-min Rain = 0
KPD4 050759Z 27009KT 20/17 A3007 RMK A01 T02030174  RH  083%=      5-min Rain = 0
KPD4 050800Z 26010KT 20/17 A3007 RMK A01 T02040174  RH  083%=      5-min Rain = 0
KPD4 050801Z 26010KT 20/17 A3007 RMK A01 T02040174  RH  083%=      5-min Rain = 0
KPD4 050802Z 26010KT 20/17 A3007 RMK A01 T02040174  RH  083%=      5-min Rain = 0
KPD4 050803Z 26010KT 20/17 A3007 RMK A01 T02030174  RH  083%=      5-min Rain = 0
KPD4 050804Z 26009KT 20/18 A3007 RMK A01 T02030175  RH  084%=      5-min Rain = 0
KPD4 050805Z 26009KT 20/18 A3007 RMK A01 T02030175  RH  084%=      5-min Rain = 0
KPD4 050806Z 26009KT 20/18 A3006 RMK A01 T02030176  RH  084%=      5-min Rain = 0
KPD4 050807Z 26009KT 20/18 A3006 RMK A01 T02030176  RH  084%=      5-min Rain = 0
KPD4 050808Z 26010KT 20/18 A3006 RMK A01 T02030176  RH  085%=      5-min Rain = 0
KPD4 050809Z 26009KT 20/18 A3006 RMK A01 T02020176  RH  085%=      5-min Rain = 0
KPD4 050810Z 26008KT 20/18 A3006 RMK A01 T02020176  RH  085%=      5-min Rain = 0
KPD4 050811Z 26009KT 20/18 A3006 RMK A01 T02020176  RH  085%=      5-min Rain = 0
KPD4 050812Z 26009KT 20/18 A3006 RMK A01 T02020176  RH  085%=      5-min Rain = 0
KPD4 050813Z 26009KT 20/18 A3006 RMK A01 T02010177  RH  086%=      5-min Rain = 0
KPD4 050814Z 26010KT 20/18 A3006 RMK A01 T02010177  RH  086%=      5-min Rain = 0
KPD4 050815Z 26009KT 20/18 A3006 RMK A01 T02000177  RH  087%=      5-min Rain = 0
KPD4 050816Z 26008KT 20/18 A3006 RMK A01 T02000178  RH  087%=      5-min Rain = 0
KPD4 050817Z 27008KT 20/18 A3006 RMK A01 T02000178  RH  087%=      5-min Rain = 0
KPD4 050818Z 28008KT 20/18 A3006 RMK A01 T02000178  RH  087%=      5-min Rain = 0
KPD4 050819Z 28008KT 20/18 A3006 RMK A01 T02000179  RH  088%=      5-min Rain = 0
KPD4 050820Z 28008KT 20/18 A3006 RMK A01 T01990179  RH  088%=      5-min Rain = 0
KPD4 050821Z 29009KT 20/18 A3006 RMK A01 T02000179  RH  088%=      5-min Rain = 0
KPD4 050822Z 28010KT 20/18 A3006 RMK A01 T02000179  RH  088%=      5-min Rain = 0
KPD4 050823Z 28009KT 20/18 A3006 RMK A01 T02000179  RH  087%=      5-min Rain = 0
KPD4 050824Z 27010KT 20/18 A3006 RMK A01 T02010179  RH  087%=      5-min Rain = 0
KPD4 050825Z 26010KT 20/18 A3006 RMK A01 T02010179  RH  087%=      5-min Rain = 0
KPD4 050826Z 25010KT 20/18 A3006 RMK A01 T02010179  RH  087%=      5-min Rain = 0
KPD4 050827Z 25010KT 20/18 A3006 RMK A01 T02010179  RH  087%=      5-min Rain = 0
KPD4 050828Z 25011KT 20/18 A3006 RMK A01 T02010180  RH  088%=      5-min Rain = 0
KPD4 050829Z 25012KT 20/18 A3006 RMK A01 T01990180  RH  088%=      5-min Rain = 0
KPD4 050830Z 26011KT 20/18 A3006 RMK A01 T01980180  RH  089%=      5-min Rain = 0
KPD4 050831Z 26012KT 20/18 A3006 RMK A01 T01970180  RH  090%=      5-min Rain = 0
KPD4 050832Z 26012KT 20/18 A3006 RMK A01 T01970180  RH  090%=      5-min Rain = 0
KPD4 050833Z 26010KT 20/18 A3006 RMK A01 T01960180  RH  090%=      5-min Rain = 0
KPD4 050834Z 26010KT 20/18 A3006 RMK A01 T01960180  RH  090%=      5-min Rain = 0
KPD4 050835Z 26012KT 20/18 A3006 RMK A01 T01950180  RH  091%=      5-min Rain = 0
KPD4 050836Z 26011KT 20/18 A3006 RMK A01 T01950180  RH  091%=      5-min Rain = 0
KPD4 050837Z 27010KT 20/18 A3006 RMK A01 T01950180  RH  091%=      5-min Rain = 0
KPD4 050838Z 27009KT 20/18 A3006 RMK A01 T01950179  RH  091%=      5-min Rain = 0
KPD4 050839Z 26008KT 19/18 A3006 RMK A01 T01940179  RH  091%=      5-min Rain = 0
KPD4 050840Z 26010KT 19/18 A3006 RMK A01 T01940179  RH  091%=      5-min Rain = 0
KPD4 050841Z 26010KT 19/18 A3006 RMK A01 T01940179  RH  091%=      5-min Rain = 0
KPD4 050842Z 26009KT 19/18 A3006 RMK A01 T01940179  RH  091%=      5-min Rain = 0
KPD4 050843Z 26009KT 19/18 A3006 RMK A01 T01940179  RH  091%=      5-min Rain = 0
KPD4 050844Z 26010KT 19/18 A3006 RMK A01 T01940179  RH  091%=      5-min Rain = 0
KPD4 050845Z 27008KT 19/18 A3006 RMK A01 T01940179  RH  091%=      5-min Rain = 0
KPD4 050846Z 27008KT 19/18 A3006 RMK A01 T01940179  RH  091%=      5-min Rain = 0
KPD4 050847Z 27009KT 19/18 A3006 RMK A01 T01940179  RH  091%=      5-min Rain = 0
KPD4 050848Z 27008KT 19/18 A3005 RMK A01 T01940179  RH  091%=      5-min Rain = 0
KPD4 050849Z 26007KT 19/18 A3005 RMK A01 T01940179  RH  091%=      5-min Rain = 0
KPD4 050850Z 26007KT 19/18 A3006 RMK A01 T01940178  RH  091%=      5-min Rain = 0
KPD4 050851Z 26007KT 19/18 A3005 RMK A01 T01940178  RH  091%=      5-min Rain = 0
KPD4 050852Z 26006KT 19/18 A3005 RMK A01 T01940179  RH  091%=      5-min Rain = 0
KPD4 050853Z 26006KT 19/18 A3005 RMK A01 T01940178  RH  091%=      5-min Rain = 0
KPD4 050854Z 26006KT 19/18 A3005 RMK A01 T01930178  RH  091%=      5-min Rain = 0
KPD4 050855Z 26005KT 19/18 A3005 RMK A01 T01940179  RH  091%=      5-min Rain = 0
KPD4 050856Z 26006KT 19/18 A3005 RMK A01 T01940179  RH  091%=      5-min Rain = 0
KPD4 050857Z 26005KT 19/18 A3005 RMK A01 T01940179  RH  091%=      5-min Rain = 0
KPD4 050858Z 27006KT 19/18 A3005 RMK A01 T01930178  RH  091%=      5-min Rain = 0
KPD4 050859Z 27005KT 19/18 A3005 RMK A01 T01930178  RH  091%=      5-min Rain = 0
KPD4 050900Z 27005KT 19/18 A3005 RMK A01 T01940179  RH  091%=      5-min Rain = 0
KPD4 050901Z 28005KT 19/18 A3005 RMK A01 T01930178  RH  091%=      5-min Rain = 0
KPD4 050902Z 28005KT 19/18 A3005 RMK A01 T01930178  RH  091%=      5-min Rain = 0
KPD4 050903Z 27005KT 19/18 A3005 RMK A01 T01940178  RH  091%=      5-min Rain = 0
KPD4 050904Z 28005KT 19/18 A3005 RMK A01 T01940178  RH  091%=      5-min Rain = 0
KPD4 050905Z 27005KT 19/18 A3005 RMK A01 T01930178  RH  091%=      5-min Rain = 0
KPD4 050906Z 26006KT 19/18 A3005 RMK A01 T01940178  RH  091%=      5-min Rain = 0
KPD4 050907Z 26005KT 19/18 A3005 RMK A01 T01940178  RH  091%=      5-min Rain = 0
KPD4 050908Z 26005KT 19/18 A3005 RMK A01 T01930178  RH  091%=      5-min Rain = 0
KPD4 050909Z 26005KT 19/18 A3005 RMK A01 T01940178  RH  091%=      5-min Rain = 0
KPD4 050910Z 25005KT 19/18 A3005 RMK A01 T01930178  RH  091%=      5-min Rain = 0
KPD4 050911Z 26004KT 19/18 A3005 RMK A01 T01930178  RH  091%=      5-min Rain = 0
KPD4 050912Z 25005KT 19/18 A3005 RMK A01 T01930178  RH  091%=      5-min Rain = 0
KPD4 050913Z 25004KT 19/18 A3005 RMK A01 T01930178  RH  091%=      5-min Rain = 0
KPD4 050914Z 25004KT 19/18 A3005 RMK A01 T01930178  RH  091%=      5-min Rain = 0
KPD4 050915Z 25004KT 19/18 A3005 RMK A01 T01930178  RH  091%=      5-min Rain = 0
KPD4 050916Z 26004KT 19/18 A3005 RMK A01 T01930178  RH  091%=      5-min Rain = 0
KPD4 050917Z 26003KT 19/18 A3004 RMK A01 T01930178  RH  091%=      5-min Rain = 0
KPD4 050918Z 26003KT 19/18 A3004 RMK A01 T01930179  RH  091%=      5-min Rain = 0
KPD4 050919Z 27004KT 19/18 A3004 RMK A01 T01930178  RH  091%=      5-min Rain = 0
KPD4 050920Z 27003KT 19/18 A3004 RMK A01 T01930178  RH  091%=      5-min Rain = 0
KPD4 050921Z 27003KT 19/18 A3004 RMK A01 T01930178  RH  091%=      5-min Rain = 0
KPD4 050922Z 28002KT 19/18 A3004 RMK A01 T01930178  RH  091%=      5-min Rain = 0
KPD4 050923Z 28003KT 19/18 A3004 RMK A01 T01930178  RH  091%=      5-min Rain = 0
KPD4 050924Z 28003KT 19/18 A3004 RMK A01 T01930178  RH  091%=      5-min Rain = 0
KPD4 050925Z 29003KT 19/18 A3004 RMK A01 T01930178  RH  091%=      5-min Rain = 0
KPD4 050926Z 29003KT 19/18 A3004 RMK A01 T01930178  RH  091%=      5-min Rain = 0
KPD4 050927Z 31003KT 19/18 A3004 RMK A01 T01930178  RH  091%=      5-min Rain = 0
KPD4 050928Z 32003KT 19/18 A3004 RMK A01 T01930178  RH  091%=      5-min Rain = 0
KPD4 050929Z 32004KT 19/18 A3003 RMK A01 T01930178  RH  091%=      5-min Rain = 0
KPD4 050930Z 33004KT 19/18 A3003 RMK A01 T01930178  RH  091%=      5-min Rain = 0
KPD4 050931Z 33005KT 19/18 A3003 RMK A01 T01930178  RH  091%=      5-min Rain = 0
KPD4 050932Z 34005KT 19/18 A3003 RMK A01 T01930178  RH  091%=      5-min Rain = 0
KPD4 050933Z 34004KT 19/18 A3003 RMK A01 T01930178  RH  091%=      5-min Rain = 0
KPD4 050934Z 33004KT 19/18 A3003 RMK A01 T01930178  RH  091%=      5-min Rain = 0
KPD4 050935Z 33003KT 19/18 A3003 RMK A01 T01930178  RH  091%=      5-min Rain = 0
KPD4 050936Z 32003KT 19/18 A3003 RMK A01 T01930178  RH  091%=      5-min Rain = 0
KPD4 050937Z 32003KT 19/18 A3003 RMK A01 T01930178  RH  091%=      5-min Rain = 0
KPD4 050938Z 30003KT 19/18 A3003 RMK A01 T01930178  RH  091%=      5-min Rain = 0
KPD4 050939Z 30003KT 19/18 A3003 RMK A01 T01930179  RH  091%=      5-min Rain = 0
KPD4 050940Z 29003KT 19/18 A3003 RMK A01 T01930178  RH  091%=      5-min Rain = 0
KPD4 050941Z 28003KT 19/18 A3003 RMK A01 T01930178  RH  091%=      5-min Rain = 0
KPD4 050942Z 28004KT 19/18 A3003 RMK A01 T01930178  RH  091%=      5-min Rain = 0
KPD4 050943Z 29004KT 19/18 A3002 RMK A01 T01930178  RH  091%=      5-min Rain = 0
KPD4 050944Z 29005KT 19/18 A3002 RMK A01 T01930178  RH  091%=      5-min Rain = 0
KPD4 050945Z 30005KT 19/18 A3002 RMK A01 T01930178  RH  091%=      5-min Rain = 0
KPD4 050946Z 30005KT 19/18 A3002 RMK A01 T01930178  RH  091%=      5-min Rain = 0
KPD4 050947Z 31005KT 19/18 A3002 RMK A01 T01930178  RH  091%=      5-min Rain = 0
KPD4 050948Z 32005KT 19/18 A3002 RMK A01 T01930178  RH  091%=      5-min Rain = 0
KPD4 050949Z 34004KT 19/18 A3002 RMK A01 T01930178  RH  091%=      5-min Rain = 0
KPD4 050950Z 35004KT 19/18 A3002 RMK A01 T01930178  RH  091%=      5-min Rain = 0
KPD4 050951Z 36004KT 19/18 A3002 RMK A01 T01930178  RH  091%=      5-min Rain = 0
KPD4 050952Z 35003KT 19/18 A3002 RMK A01 T01930178  RH  091%=      5-min Rain = 0
KPD4 050953Z 34004KT 19/18 A3002 RMK A01 T01920178  RH  091%=      5-min Rain = 0
KPD4 050954Z 33004KT 19/18 A3002 RMK A01 T01920178  RH  091%=      5-min Rain = 0
KPD4 050955Z 33004KT 19/18 A3002 RMK A01 T01930179  RH  092%=      5-min Rain = 0
KPD4 050956Z 33004KT 19/18 A3002 RMK A01 T01930179  RH  092%=      5-min Rain = 0
KPD4 050957Z 33004KT 19/18 A3002 RMK A01 T01930179  RH  092%=      5-min Rain = 0
KPD4 050958Z 33004KT 19/18 A3002 RMK A01 T01920178  RH  092%=      5-min Rain = 0
KPD4 050959Z 33004KT 19/18 A3002 RMK A01 T01920178  RH  092%=      5-min Rain = 0
KPD4 051000Z 33004KT 19/18 A3002 RMK A01 T01920179  RH  092%=      5-min Rain = 0
KPD4 051001Z 34004KT 19/18 A3002 RMK A01 T01920179  RH  092%=      5-min Rain = 0
KPD4 051002Z 34004KT 19/18 A3002 RMK A01 T01920178  RH  092%=      5-min Rain = 0
KPD4 051003Z 34004KT 19/18 A3001 RMK A01 T01920178  RH  092%=      5-min Rain = 0
KPD4 051004Z 34003KT 19/18 A3001 RMK A01 T01920178  RH  092%=      5-min Rain = 0
KPD4 051005Z 34003KT 19/18 A3001 RMK A01 T01920178  RH  092%=      5-min Rain = 0
KPD4 051006Z 34003KT 19/18 A3001 RMK A01 T01920178  RH  092%=      5-min Rain = 0
KPD4 051007Z 33003KT 19/18 A3001 RMK A01 T01920178  RH  092%=      5-min Rain = 0
KPD4 051008Z 34002KT 19/18 A3001 RMK A01 T01910178  RH  092%=      5-min Rain = 0
KPD4 051009Z 03002KT 19/18 A3001 RMK A01 T01910178  RH  092%=      5-min Rain = 0
KPD4 051010Z 07003KT 19/18 A3001 RMK A01 T01910177  RH  092%=      5-min Rain = 0
KPD4 051011Z 07004KT 19/18 A3001 RMK A01 T01910177  RH  092%=      5-min Rain = 0
KPD4 051012Z 06004KT 19/18 A3001 RMK A01 T01900177  RH  092%=      5-min Rain = 0
KPD4 051013Z 05004KT 19/18 A3001 RMK A01 T01900177  RH  092%=      5-min Rain = 0
KPD4 051014Z 04003KT 19/18 A3001 RMK A01 T01900177  RH  092%=      5-min Rain = 0
KPD4 051015Z 02003KT 19/18 A3001 RMK A01 T01900178  RH  092%=      5-min Rain = 0
KPD4 051016Z 35003KT 19/18 A3001 RMK A01 T01910178  RH  092%=      5-min Rain = 0
KPD4 051017Z 32004KT 19/18 A3001 RMK A01 T01910178  RH  092%=      5-min Rain = 0
KPD4 051018Z 31004KT 19/18 A30 RMK A01 T01910177  RH  092%=      5-min Rain = 0
KPD4 051019Z 31005KT 19/18 A30 RMK A01 T01920178  RH  092%=      5-min Rain = 0
KPD4 051020Z 31005KT 19/18 A30 RMK A01 T01920177  RH  091%=      5-min Rain = 0
KPD4 051021Z 30005KT 19/18 A30 RMK A01 T01920177  RH  091%=      5-min Rain = 0
KPD4 051022Z 30005KT 19/18 A3001 RMK A01 T01920177  RH  091%=      5-min Rain = 0
KPD4 051023Z 31004KT 19/18 A3001 RMK A01 T01930177  RH  091%=      5-min Rain = 0
KPD4 051024Z 31003KT 19/18 A3001 RMK A01 T01920177  RH  091%=      5-min Rain = 0
KPD4 051025Z 35001KT 19/18 A3001 RMK A01 T01930177  RH  091%=      5-min Rain = 0
KPD4 051026Z 13005KT 19/18 A3001 RMK A01 T01920177  RH  091%=      5-min Rain = 0
KPD4 051027Z 12005KT 19/18 A3001 RMK A01 T01920177  RH  091%=      5-min Rain = 0
KPD4 051028Z 12005KT 19/18 A3001 RMK A01 T01910177  RH  092%=      5-min Rain = 0
KPD4 051029Z 10004KT 19/18 A3001 RMK A01 T01900177  RH  092%=      5-min Rain = 0
KPD4 051030Z 10002KT 19/18 A3001 RMK A01 T01900177  RH  092%=      5-min Rain = 0
KPD4 051031Z 10000KT 19/18 A3001 RMK A01 T01900177  RH  092%=      5-min Rain = 0
KPD4 051032Z 31001KT 19/18 A3001 RMK A01 T01900177  RH  092%=      5-min Rain = 0
KPD4 051033Z 28002KT 19/18 A3001 RMK A01 T01900177  RH  092%=      5-min Rain = 0
KPD4 051034Z 27003KT 19/18 A3001 RMK A01 T01910177  RH  092%=      5-min Rain = 0
KPD4 051035Z 27003KT 19/18 A3001 RMK A01 T01920177  RH  091%=      5-min Rain = 0
KPD4 051036Z 25003KT 19/18 A3001 RMK A01 T01930177  RH  091%=      5-min Rain = 0
KPD4 051037Z 25003KT 19/18 A3001 RMK A01 T01930177  RH  090%=      5-min Rain = 0
KPD4 051038Z 24003KT 19/18 A3001 RMK A01 T01930177  RH  090%=      5-min Rain = 0
KPD4 051039Z 24003KT 19/18 A3001 RMK A01 T01930177  RH  090%=      5-min Rain = 0
KPD4 051040Z 24002KT 19/18 A3001 RMK A01 T01930177  RH  091%=      5-min Rain = 0
KPD4 051041Z 24001KT 19/18 A3001 RMK A01 T01920177  RH  091%=      5-min Rain = 0
KPD4 051042Z 11002KT 19/18 A3001 RMK A01 T01920177  RH  091%=      5-min Rain = 0
KPD4 051043Z 12003KT 19/18 A3001 RMK A01 T01910177  RH  091%=      5-min Rain = 0
KPD4 051044Z 11003KT 19/18 A3001 RMK A01 T01910177  RH  092%=      5-min Rain = 0
KPD4 051045Z 13003KT 19/18 A3001 RMK A01 T01910177  RH  092%=      5-min Rain = 0
KPD4 051046Z 14003KT 19/18 A3001 RMK A01 T01900177  RH  092%=      5-min Rain = 0
KPD4 051047Z 15004KT 19/18 A3001 RMK A01 T01900177  RH  092%=      5-min Rain = 0
KPD4 051048Z 17004KT 19/18 A3001 RMK A01 T01890177  RH  092%=      5-min Rain = 0
KPD4 051049Z 20004KT 19/18 A3001 RMK A01 T01890177  RH  093%=      5-min Rain = 0
KPD4 051050Z 22004KT 19/18 A3001 RMK A01 T01890177  RH  093%=      5-min Rain = 0
KPD4 051051Z 23003KT 19/18 A3001 RMK A01 T01890177  RH  093%=      5-min Rain = 0
KPD4 051052Z 25003KT 19/18 A3001 RMK A01 T01890177  RH  093%=      5-min Rain = 0
KPD4 051053Z 26003KT 19/18 A3001 RMK A01 T01890177  RH  093%=      5-min Rain = 0
KPD4 051054Z 26003KT 19/18 A3001 RMK A01 T01890177  RH  093%=      5-min Rain = 0
KPD4 051055Z 26003KT 19/18 A3001 RMK A01 T01890177  RH  093%=      5-min Rain = 0
KPD4 051056Z 25003KT 19/18 A3001 RMK A01 T01890178  RH  093%=      5-min Rain = 0
KPD4 051057Z 26003KT 19/18 A3001 RMK A01 T01900178  RH  093%=      5-min Rain = 0
KPD4 051058Z 26003KT 19/18 A3001 RMK A01 T01900178  RH  093%=      5-min Rain = 0
KPD4 051059Z 26003KT 19/18 A3001 RMK A01 T01900178  RH  093%=      5-min Rain = 0
KPD4 051100Z 24003KT 19/18 A3002 RMK A01 T01900178  RH  093%=      5-min Rain = 0
KPD4 051101Z 23004KT 19/18 A3002 RMK A01 T01900178  RH  093%=      5-min Rain = 0
KPD4 051102Z 22005KT 19/18 A3002 RMK A01 T01900178  RH  093%=      5-min Rain = 0
KPD4 051103Z 21004KT 19/18 A3002 RMK A01 T01890178  RH  093%=      5-min Rain = 0
KPD4 051104Z 23004KT 19/18 A3002 RMK A01 T01890178  RH  093%=      5-min Rain = 0
KPD4 051105Z 24004KT 19/18 A3002 RMK A01 T01890178  RH  093%=      5-min Rain = 0
KPD4 051106Z 25004KT 19/18 A3002 RMK A01 T01890178  RH  093%=      5-min Rain = 0
KPD4 051107Z 26004KT 19/18 A3002 RMK A01 T01890178  RH  093%=      5-min Rain = 0
KPD4 051108Z 28004KT 19/18 A3003 RMK A01 T01890178  RH  093%=      5-min Rain = 0
KPD4 051109Z 28004KT 19/18 A3003 RMK A01 T01890177  RH  093%=      5-min Rain = 0
KPD4 051110Z 29004KT 19/18 A3003 RMK A01 T01890177  RH  093%=      5-min Rain = 0
KPD4 051111Z 29005KT 19/18 A3002 RMK A01 T01890177  RH  093%=      5-min Rain = 0
KPD4 051112Z 29005KT 19/18 A3002 RMK A01 T01900177  RH  093%=      5-min Rain = 0
KPD4 051113Z 29005KT 19/18 A3002 RMK A01 T01900177  RH  092%=      5-min Rain = 0
KPD4 051114Z 30005KT 19/18 A3002 RMK A01 T01900177  RH  092%=      5-min Rain = 0
KPD4 051115Z 30004KT 19/18 A3002 RMK A01 T01910177  RH  092%=      5-min Rain = 0
KPD4 051116Z 30003KT 19/18 A3002 RMK A01 T01910177  RH  092%=      5-min Rain = 0
KPD4 051117Z 27003KT 19/18 A3002 RMK A01 T01910177  RH  091%=      5-min Rain = 0
KPD4 051118Z 24003KT 19/18 A3003 RMK A01 T01910177  RH  091%=      5-min Rain = 0
KPD4 051119Z 23005KT 19/18 A3003 RMK A01 T01910177  RH  091%=      5-min Rain = 0
KPD4 051120Z 21006KT 19/18 A3003 RMK A01 T01910177  RH  092%=      5-min Rain = 0
KPD4 051121Z 20005KT 19/18 A3003 RMK A01 T01900177  RH  092%=      5-min Rain = 0
KPD4 051122Z 21004KT 19/18 A3003 RMK A01 T01890177  RH  093%=      5-min Rain = 0
KPD4 051123Z 23003KT 19/18 A3003 RMK A01 T01890177  RH  093%=      5-min Rain = 0
KPD4 051124Z 23003KT 19/18 A3003 RMK A01 T01890177  RH  093%=      5-min Rain = 0
KPD4 051125Z 24005KT 19/18 A3003 RMK A01 T01890177  RH  093%=      5-min Rain = 0
KPD4 051126Z 25006KT 19/18 A3004 RMK A01 T01880177  RH  093%=      5-min Rain = 0
KPD4 051127Z 25005KT 19/18 A3004 RMK A01 T01890177  RH  093%=      5-min Rain = 0
KPD4 051128Z 25005KT 19/18 A3004 RMK A01 T01890177  RH  093%=      5-min Rain = 0
KPD4 051129Z 24005KT 19/18 A3003 RMK A01 T01890178  RH  093%=      5-min Rain = 0
KPD4 051130Z 24004KT 19/18 A3003 RMK A01 T01890177  RH  093%=      5-min Rain = 0
KPD4 051131Z 26005KT 19/18 A3003 RMK A01 T01890178  RH  093%=      5-min Rain = 0
KPD4 051132Z 28006KT 19/18 A3003 RMK A01 T01890178  RH  093%=      5-min Rain = 0
KPD4 051133Z 28008KT 19/18 A3003 RMK A01 T01900178  RH  093%=      5-min Rain = 0
KPD4 051134Z 27006KT 19/18 A3003 RMK A01 T01900178  RH  093%=      5-min Rain = 0
KPD4 051135Z 27006KT 19/18 A3003 RMK A01 T01900178  RH  093%=      5-min Rain = 0
KPD4 051136Z 29006KT 19/18 A3004 RMK A01 T01910179  RH  092%=      5-min Rain = 0
KPD4 051137Z 28007KT 19/18 A3004 RMK A01 T01910179  RH  092%=      5-min Rain = 0
KPD4 051138Z 27007KT 19/18 A3004 RMK A01 T01920179  RH  092%=      5-min Rain = 0
KPD4 051139Z 27006KT 19/18 A3004 RMK A01 T01920179  RH  092%=      5-min Rain = 0
KPD4 051140Z 28007KT 19/18 A3004 RMK A01 T01910179  RH  092%=      5-min Rain = 0
KPD4 051141Z 29006KT 19/18 A3004 RMK A01 T01910179  RH  093%=      5-min Rain = 0
KPD4 051142Z 30006KT 19/18 A3004 RMK A01 T01910179  RH  093%=      5-min Rain = 0
KPD4 051143Z 31005KT 19/18 A3004 RMK A01 T01910179  RH  093%=      5-min Rain = 0
KPD4 051144Z 32005KT 19/18 A3004 RMK A01 T01910179  RH  093%=      5-min Rain = 0
KPD4 051145Z 32007KT 19/18 A3004 RMK A01 T01910179  RH  093%=      5-min Rain = 0
KPD4 051146Z 31008KT 19/18 A3004 RMK A01 T01910179  RH  093%=      5-min Rain = 0
KPD4 051147Z 31008KT 19/18 A3004 RMK A01 T01910179  RH  093%=      5-min Rain = 0
KPD4 051148Z 30008KT 19/18 A3004 RMK A01 T01910179  RH  093%=      5-min Rain = 0
KPD4 051149Z 30006KT 19/18 A3004 RMK A01 T01910180  RH  093%=      5-min Rain = 0
KPD4 051150Z 30006KT 19/18 A3004 RMK A01 T01920180  RH  093%=      5-min Rain = 0
KPD4 051151Z 31007KT 19/18 A3004 RMK A01 T01920180  RH  092%=      5-min Rain = 0
KPD4 051152Z 31008KT 19/18 A3004 RMK A01 T01930180  RH  092%=      5-min Rain = 0
KPD4 051153Z 30007KT 19/18 A3004 RMK A01 T01930180  RH  092%=      5-min Rain = 0
KPD4 051154Z 30008KT 19/18 A3004 RMK A01 T01940179  RH  092%=      5-min Rain = 0
KPD4 051155Z 31009KT 19/18 A3004 RMK A01 T01940179  RH  091%=      5-min Rain = 0
KPD4 051156Z 31009KT 19/18 A3004 RMK A01 T01940179  RH  091%=      5-min Rain = 0
KPD4 051157Z 31009KT 19/18 A3004 RMK A01 T01940179  RH  091%=      5-min Rain = 0
KPD4 051158Z 31008KT 19/18 A3004 RMK A01 T01940179  RH  091%=      5-min Rain = 0
KPD4 051159Z 31007KT 19/18 A3004 RMK A01 T01940179  RH  091%=      5-min Rain = 0
KPD4 051200Z 31006KT 19/18 A3004 RMK A01 T01940179  RH  091%=      5-min Rain = 0
KPD4 051201Z 30005KT 19/18 A3005 RMK A01 T01940179  RH  091%=      5-min Rain = 0
KPD4 051202Z 29005KT 19/18 A3005 RMK A01 T01940179  RH  091%=      5-min Rain = 0
KPD4 051203Z 27004KT 19/18 A3005 RMK A01 T01940179  RH  091%=      5-min Rain = 0
KPD4 051204Z 28004KT 19/18 A3005 RMK A01 T01940179  RH  091%=      5-min Rain = 0
KPD4 051205Z 28005KT 19/18 A3005 RMK A01 T01930178  RH  091%=      5-min Rain = 0
KPD4 051206Z 28004KT 19/18 A3005 RMK A01 T01930179  RH  091%=      5-min Rain = 0
KPD4 051207Z 29004KT 19/18 A3005 RMK A01 T01930179  RH  091%=      5-min Rain = 0
KPD4 051208Z 29005KT 19/18 A3005 RMK A01 T01930179  RH  091%=      5-min Rain = 0
KPD4 051209Z 29004KT 19/18 A3005 RMK A01 T01930179  RH  092%=      5-min Rain = 0
KPD4 051210Z 29005KT 19/18 A3005 RMK A01 T01930179  RH  092%=      5-min Rain = 0
KPD4 051211Z 30005KT 19/18 A3005 RMK A01 T01930178  RH  092%=      5-min Rain = 0
KPD4 051212Z 30005KT 19/18 A3005 RMK A01 T01930178  RH  091%=      5-min Rain = 0
KPD4 051213Z 29005KT 19/18 A3005 RMK A01 T01930179  RH  091%=      5-min Rain = 0
KPD4 051214Z 28004KT 19/18 A3005 RMK A01 T01930179  RH  091%=      5-min Rain = 0
KPD4 051215Z 27005KT 19/18 A3005 RMK A01 T01930179  RH  091%=      5-min Rain = 0
KPD4 051216Z 26005KT 19/18 A3005 RMK A01 T01930179  RH  091%=      5-min Rain = 0
KPD4 051217Z 25004KT 19/18 A3005 RMK A01 T01930179  RH  092%=      5-min Rain = 0
KPD4 051218Z 25004KT 19/18 A3005 RMK A01 T01930179  RH  092%=      5-min Rain = 0
KPD4 051219Z 25004KT 19/18 A3005 RMK A01 T01930179  RH  092%=      5-min Rain = 0
KPD4 051220Z 24003KT 19/18 A3005 RMK A01 T01930179  RH  092%=      5-min Rain = 0
KPD4 051221Z 24003KT 19/18 A3005 RMK A01 T01930179  RH  092%=      5-min Rain = 0
KPD4 051222Z 25002KT 19/18 A3005 RMK A01 T01930179  RH  092%=      5-min Rain = 0
KPD4 051223Z 27001KT 19/18 A3005 RMK A01 T01930179  RH  092%=      5-min Rain = 0
KPD4 051224Z 30002KT 19/18 A3005 RMK A01 T01940179  RH  091%=      5-min Rain = 0
KPD4 051225Z 30002KT 19/18 A3006 RMK A01 T01940179  RH  091%=      5-min Rain = 0
KPD4 051226Z 30001KT 19/18 A3005 RMK A01 T01940179  RH  091%=      5-min Rain = 0
KPD4 051227Z 30002KT 19/18 A3005 RMK A01 T01940179  RH  091%=      5-min Rain = 0
KPD4 051228Z 31002KT 19/18 A3005 RMK A01 T01940179  RH  091%=      5-min Rain = 0
KPD4 051229Z 30003KT 20/18 A3005 RMK A01 T01950180  RH  091%=      5-min Rain = 0
KPD4 051230Z 29002KT 20/18 A3005 RMK A01 T01950179  RH  091%=      5-min Rain = 0
KPD4 051231Z 29003KT 20/18 A3005 RMK A01 T01960179  RH  090%=      5-min Rain = 0
KPD4 051232Z 29003KT 20/18 A3005 RMK A01 T01960180  RH  090%=      5-min Rain = 0
KPD4 051233Z 29003KT 20/18 A3005 RMK A01 T01960179  RH  090%=      5-min Rain = 0
KPD4 051234Z 29004KT 20/18 A3005 RMK A01 T01960179  RH  090%=      5-min Rain = 0
KPD4 051235Z 28004KT 20/18 A3005 RMK A01 T01970180  RH  090%=      5-min Rain = 0
KPD4 051236Z 27003KT 20/18 A3005 RMK A01 T01970179  RH  090%=      5-min Rain = 0
KPD4 051237Z 27003KT 20/18 A3005 RMK A01 T01970180  RH  090%=      5-min Rain = 0
KPD4 051238Z 28003KT 20/18 A3005 RMK A01 T01970180  RH  090%=      5-min Rain = 0
KPD4 051239Z 27003KT 20/18 A3005 RMK A01 T01980179  RH  089%=      5-min Rain = 0
KPD4 051240Z 27003KT 20/18 A3006 RMK A01 T01980179  RH  089%=      5-min Rain = 0
KPD4 051241Z 26002KT 20/18 A3006 RMK A01 T01980179  RH  089%=      5-min Rain = 0
KPD4 051242Z 28002KT 20/18 A3006 RMK A01 T01980180  RH  089%=      5-min Rain = 0
KPD4 051243Z 29002KT 20/18 A3006 RMK A01 T01990180  RH  089%=      5-min Rain = 0
KPD4 051244Z 29002KT 20/18 A3006 RMK A01 T01990180  RH  089%=      5-min Rain = 0
KPD4 051245Z 29004KT 20/18 A3006 RMK A01 T02000180  RH  088%=      5-min Rain = 0
KPD4 051246Z 29004KT 20/18 A3006 RMK A01 T02000180  RH  088%=      5-min Rain = 0
KPD4 051247Z 29004KT 20/18 A3005 RMK A01 T02000179  RH  088%=      5-min Rain = 0
KPD4 051248Z 29004KT 20/18 A3005 RMK A01 T02000179  RH  088%=      5-min Rain = 0
KPD4 051249Z 28004KT 20/18 A3005 RMK A01 T02010179  RH  087%=      5-min Rain = 0
KPD4 051250Z 28004KT 20/18 A3005 RMK A01 T02010179  RH  087%=      5-min Rain = 0
KPD4 051251Z 27004KT 20/18 A3005 RMK A01 T02010179  RH  087%=      5-min Rain = 0
KPD4 051252Z 27004KT 20/18 A3006 RMK A01 T02020179  RH  087%=      5-min Rain = 0
KPD4 051253Z 27005KT 20/18 A3006 RMK A01 T02020179  RH  087%=      5-min Rain = 0
KPD4 051254Z 27005KT 20/18 A3006 RMK A01 T02020179  RH  087%=      5-min Rain = 0
KPD4 051255Z 26005KT 20/18 A3006 RMK A01 T02020179  RH  087%=      5-min Rain = 0
KPD4 051256Z 26004KT 20/18 A3006 RMK A01 T02020180  RH  087%=      5-min Rain = 0
KPD4 051257Z 26005KT 20/18 A3006 RMK A01 T02020180  RH  087%=      5-min Rain = 0
KPD4 051258Z 26005KT 20/18 A3006 RMK A01 T02030179  RH  086%=      5-min Rain = 0
KPD4 051259Z 27005KT 20/18 A3006 RMK A01 T02030179  RH  086%=      5-min Rain = 0
KPD4 051300Z 26005KT 20/18 A3006 RMK A01 T02030179  RH  086%=      5-min Rain = 0
KPD4 051301Z 26005KT 20/18 A3006 RMK A01 T02030180  RH  087%=      5-min Rain = 0
KPD4 051302Z 25005KT 20/18 A3006 RMK A01 T02040180  RH  086%=      5-min Rain = 0
KPD4 051303Z 25005KT 20/18 A3006 RMK A01 T02030179  RH  086%=      5-min Rain = 0
KPD4 051304Z 25006KT 20/18 A3006 RMK A01 T02030179  RH  086%=      5-min Rain = 0
KPD4 051305Z 25006KT 20/18 A3006 RMK A01 T02040180  RH  086%=      5-min Rain = 0
KPD4 051306Z 25005KT 20/18 A3006 RMK A01 T02040180  RH  086%=      5-min Rain = 0
KPD4 051307Z 24006KT 21/18 A3006 RMK A01 T02050180  RH  086%=      5-min Rain = 0
KPD4 051308Z 25007KT 21/18 A3006 RMK A01 T02050179  RH  085%=      5-min Rain = 0
KPD4 051309Z 26006KT 21/18 A3006 RMK A01 T02050179  RH  085%=      5-min Rain = 0
KPD4 051310Z 26005KT 21/18 A3006 RMK A01 T02050179  RH  085%=      5-min Rain = 0
KPD4 051311Z 26005KT 21/18 A3006 RMK A01 T02060179  RH  085%=      5-min Rain = 0
KPD4 051312Z 27005KT 21/18 A3006 RMK A01 T02060179  RH  084%=      5-min Rain = 0
KPD4 051313Z 27006KT 21/18 A3006 RMK A01 T02060178  RH  084%=      5-min Rain = 0
KPD4 051314Z 27005KT 21/18 A3006 RMK A01 T02060178  RH  084%=      5-min Rain = 0
KPD4 051315Z 28004KT 21/18 A3007 RMK A01 T02060178  RH  084%=      5-min Rain = 0
KPD4 051316Z 27004KT 21/18 A3007 RMK A01 T02060178  RH  084%=      5-min Rain = 0
KPD4 051317Z 28004KT 21/18 A3007 RMK A01 T02060179  RH  084%=      5-min Rain = 0
KPD4 051318Z 29005KT 21/18 A3007 RMK A01 T02060178  RH  084%=      5-min Rain = 0
KPD4 051319Z 29005KT 21/18 A3007 RMK A01 T02070178  RH  084%=      5-min Rain = 0
KPD4 051320Z 29005KT 21/18 A3007 RMK A01 T02070178  RH  084%=      5-min Rain = 0
KPD4 051321Z 28005KT 21/18 A3007 RMK A01 T02070179  RH  084%=      5-min Rain = 0
KPD4 051322Z 26004KT 21/18 A3007 RMK A01 T02070181  RH  085%=      5-min Rain = 0
KPD4 051323Z 27005KT 21/18 A3007 RMK A01 T02070181  RH  085%=      5-min Rain = 0
KPD4 051324Z 26004KT 21/18 A3007 RMK A01 T02060180  RH  085%=      5-min Rain = 0
KPD4 051325Z 27004KT 21/18 A3007 RMK A01 T02060180  RH  085%=      5-min Rain = 0
KPD4 051326Z 27004KT 21/18 A3007 RMK A01 T02050181  RH  086%=      5-min Rain = 0
KPD4 051327Z 27004KT 21/18 A3007 RMK A01 T02060181  RH  086%=      5-min Rain = 0
KPD4 051328Z 27004KT 21/18 A3007 RMK A01 T02050181  RH  086%=      5-min Rain = 0
KPD4 051329Z 29003KT 21/18 A3007 RMK A01 T02050181  RH  086%=      5-min Rain = 0
KPD4 051330Z 29005KT 21/18 A3007 RMK A01 T02050180  RH  086%=      5-min Rain = 0
KPD4 051331Z 29004KT 21/18 A3007 RMK A01 T02060179  RH  085%=      5-min Rain = 0
KPD4 051332Z 29005KT 21/18 A3007 RMK A01 T02060179  RH  084%=      5-min Rain = 0
KPD4 051333Z 29005KT 21/18 A3007 RMK A01 T02070179  RH  084%=      5-min Rain = 0
KPD4 051334Z 29006KT 21/18 A3007 RMK A01 T02070179  RH  084%=      5-min Rain = 0
KPD4 051335Z 29006KT 21/18 A3007 RMK A01 T02070179  RH  084%=      5-min Rain = 0
KPD4 051336Z 29006KT 21/18 A3007 RMK A01 T02070179  RH  084%=      5-min Rain = 0
KPD4 051337Z 29006KT 21/18 A3007 RMK A01 T02070179  RH  084%=      5-min Rain = 0
KPD4 051338Z 30005KT 21/18 A3007 RMK A01 T02070179  RH  084%=      5-min Rain = 0
KPD4 051339Z 30004KT 21/18 A3007 RMK A01 T02070179  RH  084%=      5-min Rain = 0
KPD4 051340Z 30005KT 21/18 A3007 RMK A01 T02070178  RH  084%=      5-min Rain = 0
KPD4 051341Z 30005KT 21/18 A3007 RMK A01 T02070177  RH  083%=      5-min Rain = 0
KPD4 051342Z 29004KT 21/18 A3007 RMK A01 T02070177  RH  083%=      5-min Rain = 0
KPD4 051343Z 30004KT 21/18 A3007 RMK A01 T02080178  RH  083%=      5-min Rain = 0
KPD4 051344Z 30005KT 21/18 A3007 RMK A01 T02080177  RH  083%=      5-min Rain = 0
KPD4 051345Z 30005KT 21/18 A3007 RMK A01 T02080176  RH  082%=      5-min Rain = 0
KPD4 051346Z 28004KT 21/18 A3007 RMK A01 T02080178  RH  083%=      5-min Rain = 0
KPD4 051347Z 28004KT 21/18 A3007 RMK A01 T02090179  RH  083%=      5-min Rain = 0
KPD4 051348Z 28005KT 21/18 A3007 RMK A01 T02090180  RH  083%=      5-min Rain = 0
KPD4 051349Z 28005KT 21/18 A3007 RMK A01 T02090180  RH  083%=      5-min Rain = 0
KPD4 051350Z 28005KT 21/18 A3007 RMK A01 T02090179  RH  083%=      5-min Rain = 0
KPD4 051351Z 28006KT 21/18 A3007 RMK A01 T02080179  RH  083%=      5-min Rain = 0
KPD4 051352Z 29005KT 21/18 A3007 RMK A01 T02080178  RH  083%=      5-min Rain = 0
KPD4 051353Z 27004KT 21/18 A3007 RMK A01 T02080179  RH  083%=      5-min Rain = 0
KPD4 051354Z 27004KT 21/18 A3007 RMK A01 T02080180  RH  084%=      5-min Rain = 0
KPD4 051355Z 28004KT 21/18 A3007 RMK A01 T02090179  RH  083%=      5-min Rain = 0
KPD4 051356Z 27004KT 21/18 A3007 RMK A01 T02090180  RH  083%=      5-min Rain = 0
KPD4 051357Z 28004KT 21/18 A3007 RMK A01 T02090179  RH  083%=      5-min Rain = 0
KPD4 051358Z 28004KT 21/18 A3007 RMK A01 T02090178  RH  082%=      5-min Rain = 0
KPD4 051359Z 27004KT 21/18 A3007 RMK A01 T02090178  RH  083%=      5-min Rain = 0
KPD4 051400Z 27004KT 21/18 A3007 RMK A01 T02090179  RH  083%=      5-min Rain = 0
KPD4 051401Z 27003KT 21/18 A3007 RMK A01 T02090178  RH  082%=      5-min Rain = 0
KPD4 051402Z 26004KT 21/18 A3007 RMK A01 T02090178  RH  083%=      5-min Rain = 0
KPD4 051403Z 25003KT 21/18 A3007 RMK A01 T02090177  RH  082%=      5-min Rain = 0
KPD4 051404Z 26003KT 21/18 A3007 RMK A01 T02090176  RH  081%=      5-min Rain = 0
KPD4 051405Z 26002KT 21/18 A3007 RMK A01 T02090177  RH  082%=      5-min Rain = 0
KPD4 051406Z 22001KT 21/18 A3007 RMK A01 T02100178  RH  082%=      5-min Rain = 0
KPD4 051407Z 21002KT 21/18 A3007 RMK A01 T02100180  RH  082%=      5-min Rain = 0
KPD4 051408Z 21002KT 21/18 A3007 RMK A01 T02110179  RH  082%=      5-min Rain = 0
KPD4 051409Z 21003KT 21/18 A3007 RMK A01 T02110179  RH  082%=      5-min Rain = 0
KPD4 051410Z 21004KT 21/18 A3007 RMK A01 T02110180  RH  083%=      5-min Rain = 0
KPD4 051411Z 22004KT 21/18 A3007 RMK A01 T02110179  RH  082%=      5-min Rain = 0
KPD4 051412Z 22004KT 21/18 A3008 RMK A01 T02110180  RH  082%=      5-min Rain = 0
KPD4 051413Z 22004KT 21/18 A3008 RMK A01 T02120180  RH  082%=      5-min Rain = 0
KPD4 051414Z 24004KT 21/18 A3008 RMK A01 T02120181  RH  082%=      5-min Rain = 0
KPD4 051415Z 24003KT 21/18 A3008 RMK A01 T02130178  RH  081%=      5-min Rain = 0
KPD4 051416Z 24004KT 21/18 A3008 RMK A01 T02130180  RH  081%=      5-min Rain = 0
KPD4 051417Z 25005KT 21/18 A3008 RMK A01 T02130178  RH  081%=      5-min Rain = 0
KPD4 051418Z 25004KT 21/18 A3008 RMK A01 T02120177  RH  080%=      5-min Rain = 0
KPD4 051419Z 25004KT 21/18 A3008 RMK A01 T02120178  RH  081%=      5-min Rain = 0
KPD4 051420Z 25004KT 21/18 A3008 RMK A01 T02110178  RH  081%=      5-min Rain = 0
KPD4 051421Z 24004KT 21/18 A3008 RMK A01 T02110178  RH  081%=      5-min Rain = 0
KPD4 051422Z 24004KT 21/18 A3008 RMK A01 T02110179  RH  082%=      5-min Rain = 0
KPD4 051423Z 25005KT 21/18 A3008 RMK A01 T02120179  RH  081%=      5-min Rain = 0
KPD4 051424Z 25004KT 21/18 A3008 RMK A01 T02120178  RH  081%=      5-min Rain = 0
KPD4 051425Z 25004KT 21/18 A3008 RMK A01 T02120178  RH  081%=      5-min Rain = 0
KPD4 051426Z 24003KT 21/18 A3008 RMK A01 T02120178  RH  081%=      5-min Rain = 0
KPD4 051427Z 25004KT 21/18 A3008 RMK A01 T02120178  RH  081%=      5-min Rain = 0
KPD4 051428Z 26004KT 21/18 A3008 RMK A01 T02120176  RH  080%=      5-min Rain = 0
KPD4 051429Z 26004KT 21/18 A3008 RMK A01 T02120178  RH  081%=      5-min Rain = 0
KPD4 051430Z 26003KT 21/18 A3008 RMK A01 T02130176  RH  080%=      5-min Rain = 0
KPD4 051431Z 27003KT 21/18 A3008 RMK A01 T02130175  RH  079%=      5-min Rain = 0
KPD4 051432Z 27004KT 21/18 A3008 RMK A01 T02130176  RH  079%=      5-min Rain = 0
KPD4 051433Z 25004KT 21/18 A3008 RMK A01 T02120177  RH  080%=      5-min Rain = 0
KPD4 051434Z 25005KT 21/18 A3008 RMK A01 T02120179  RH  081%=      5-min Rain = 0
KPD4 051435Z 26005KT 21/18 A3008 RMK A01 T02120180  RH  082%=      5-min Rain = 0
KPD4 051436Z 26006KT 21/18 A3008 RMK A01 T02120180  RH  082%=      5-min Rain = 0
KPD4 051437Z 26006KT 21/18 A3008 RMK A01 T02120179  RH  082%=      5-min Rain = 0
KPD4 051438Z 26007KT 21/18 A3007 RMK A01 T02120179  RH  081%=      5-min Rain = 0
KPD4 051439Z 27007KT 21/18 A3007 RMK A01 T02120179  RH  082%=      5-min Rain = 0
KPD4 051440Z 27007KT 21/18 A3007 RMK A01 T02120181  RH  082%=      5-min Rain = 0
KPD4 051441Z 26006KT 21/18 A3007 RMK A01 T02120181  RH  082%=      5-min Rain = 0
KPD4 051442Z 27007KT 21/18 A3007 RMK A01 T02120181  RH  082%=      5-min Rain = 0
KPD4 051443Z 27006KT 21/18 A3008 RMK A01 T02120180  RH  082%=      5-min Rain = 0
KPD4 051444Z 27007KT 21/18 A3008 RMK A01 T02120180  RH  082%=      5-min Rain = 0
KPD4 051445Z 27006KT 21/18 A3008 RMK A01 T02120180  RH  082%=      5-min Rain = 0
KPD4 051446Z 26007KT 21/18 A3008 RMK A01 T02130180  RH  082%=      5-min Rain = 0
KPD4 051447Z 26006KT 21/18 A3008 RMK A01 T02120180  RH  082%=      5-min Rain = 0
KPD4 051448Z 26006KT 21/18 A3008 RMK A01 T02120181  RH  082%=      5-min Rain = 0
KPD4 051449Z 25006KT 21/18 A3008 RMK A01 T02130181  RH  082%=      5-min Rain = 0
KPD4 051450Z 25006KT 21/18 A3008 RMK A01 T02130181  RH  082%=      5-min Rain = 0
KPD4 051451Z 25006KT 21/18 A3008 RMK A01 T02130180  RH  081%=      5-min Rain = 0
KPD4 051452Z 24006KT 21/18 A3008 RMK A01 T02130181  RH  082%=      5-min Rain = 0
KPD4 051453Z 24007KT 21/18 A3008 RMK A01 T02130180  RH  082%=      5-min Rain = 0
KPD4 051454Z 24006KT 21/18 A3008 RMK A01 T02130180  RH  081%=      5-min Rain = 0
KPD4 051455Z 25005KT 21/18 A3008 RMK A01 T02130179  RH  081%=      5-min Rain = 0
KPD4 051456Z 25005KT 21/18 A3008 RMK A01 T02130179  RH  081%=      5-min Rain = 0
KPD4 051457Z 25004KT 21/18 A3008 RMK A01 T02130180  RH  081%=      5-min Rain = 0
KPD4 051458Z 25004KT 21/18 A3008 RMK A01 T02140180  RH  081%=      5-min Rain = 0
KPD4 051459Z 26004KT 21/18 A3008 RMK A01 T02140180  RH  081%=      5-min Rain = 0
KPD4 051500Z 26004KT 22/18 A3008 RMK A01 T02150180  RH  081%=      5-min Rain = 0
KPD4 051501Z 26003KT 21/18 A3008 RMK A01 T02140180  RH  081%=      5-min Rain = 0
KPD4 051502Z 25002KT 21/18 A3008 RMK A01 T02140179  RH  080%=      5-min Rain = 0
KPD4 051503Z 23001KT 22/18 A3008 RMK A01 T02150180  RH  081%=      5-min Rain = 0
KPD4 051504Z 19001KT 22/18 A3008 RMK A01 T02150179  RH  080%=      5-min Rain = 0
KPD4 051505Z 22001KT 22/18 A3008 RMK A01 T02150179  RH  080%=      5-min Rain = 0
KPD4 051506Z 18002KT 22/18 A3008 RMK A01 T02160180  RH  080%=      5-min Rain = 0
KPD4 051507Z 16003KT 22/18 A3008 RMK A01 T02160179  RH  079%=      5-min Rain = 0
KPD4 051508Z 16003KT 22/18 A3008 RMK A01 T02160179  RH  079%=      5-min Rain = 0
KPD4 051509Z 17003KT 22/18 A3008 RMK A01 T02160178  RH  079%=      5-min Rain = 0
KPD4 051510Z 14003KT 22/18 A3008 RMK A01 T02160179  RH  079%=      5-min Rain = 0
KPD4 051511Z 15003KT 22/18 A3008 RMK A01 T02160180  RH  080%=      5-min Rain = 0
KPD4 051512Z 18004KT 22/18 A3008 RMK A01 T02170182  RH  080%=      5-min Rain = 0
KPD4 051513Z 19004KT 22/18 A3008 RMK A01 T02180181  RH  079%=      5-min Rain = 0
KPD4 051514Z 19004KT 22/18 A3008 RMK A01 T02190181  RH  079%=      5-min Rain = 0
KPD4 051515Z 21003KT 22/18 A3008 RMK A01 T02190180  RH  078%=      5-min Rain = 0
KPD4 051516Z 22003KT 22/18 A3008 RMK A01 T02180180  RH  079%=      5-min Rain = 0
KPD4 051517Z 22002KT 22/18 A3008 RMK A01 T02180181  RH  079%=      5-min Rain = 0
KPD4 051518Z 19003KT 22/18 A3008 RMK A01 T02190182  RH  079%=      5-min Rain = 0
KPD4 051519Z 21005KT 22/18 A3008 RMK A01 T02200181  RH  078%=      5-min Rain = 0
KPD4 051520Z 21005KT 22/18 A3008 RMK A01 T02200180  RH  078%=      5-min Rain = 0
KPD4 051521Z 22003KT 22/18 A3008 RMK A01 T02190180  RH  078%=      5-min Rain = 0
KPD4 051522Z 21001KT 22/18 A3008 RMK A01 T02190179  RH  078%=      5-min Rain = 0
KPD4 051523Z 17001KT 22/18 A3008 RMK A01 T02180178  RH  078%=      5-min Rain = 0
KPD4 051524Z 16003KT 22/18 A3008 RMK A01 T02180179  RH  078%=      5-min Rain = 0
KPD4 051525Z 17003KT 22/18 A3008 RMK A01 T02180179  RH  078%=      5-min Rain = 0
KPD4 051526Z 17003KT 22/18 A3008 RMK A01 T02190179  RH  078%=      5-min Rain = 0
KPD4 051527Z 16003KT 22/18 A3008 RMK A01 T02190178  RH  078%=      5-min Rain = 0
KPD4 051528Z 18003KT 22/18 A3008 RMK A01 T02190179  RH  078%=      5-min Rain = 0
KPD4 051529Z 19004KT 22/18 A3008 RMK A01 T02190180  RH  078%=      5-min Rain = 0
KPD4 051530Z 19004KT 22/18 A3008 RMK A01 T02200179  RH  078%=      5-min Rain = 0
KPD4 051531Z 18004KT 22/18 A3008 RMK A01 T02190178  RH  078%=      5-min Rain = 0
KPD4 051532Z 18003KT 22/18 A3008 RMK A01 T02190178  RH  078%=      5-min Rain = 0
KPD4 051533Z 16003KT 22/18 A3008 RMK A01 T02180179  RH  078%=      5-min Rain = 0
KPD4 051534Z 16003KT 22/18 A3008 RMK A01 T02180178  RH  078%=      5-min Rain = 0
KPD4 051535Z 18003KT 22/18 A3008 RMK A01 T02180179  RH  078%=      5-min Rain = 0
KPD4 051536Z 17003KT 22/18 A3008 RMK A01 T02190180  RH  078%=      5-min Rain = 0
KPD4 051537Z 18005KT 22/18 A3008 RMK A01 T02200180  RH  078%=      5-min Rain = 0
KPD4 051538Z 18004KT 22/18 A3008 RMK A01 T02210179  RH  077%=      5-min Rain = 0
KPD4 051539Z 18004KT 22/18 A3008 RMK A01 T02200179  RH  077%=      5-min Rain = 0
KPD4 051540Z 18005KT 22/18 A3008 RMK A01 T02210179  RH  077%=      5-min Rain = 0
KPD4 051541Z 17004KT 22/18 A3008 RMK A01 T02200178  RH  077%=      5-min Rain = 0
KPD4 051542Z 17004KT 22/18 A3008 RMK A01 T02200178  RH  077%=      5-min Rain = 0
KPD4 051543Z 18004KT 22/18 A3008 RMK A01 T02200178  RH  077%=      5-min Rain = 0
KPD4 051544Z 18005KT 22/18 A3008 RMK A01 T02200177  RH  076%=      5-min Rain = 0
KPD4 051545Z 18006KT 22/18 A3008 RMK A01 T02200177  RH  076%=      5-min Rain = 0
KPD4 051546Z 17004KT 22/18 A3008 RMK A01 T02210177  RH  076%=      5-min Rain = 0
KPD4 051547Z 19004KT 22/18 A3008 RMK A01 T02210177  RH  076%=      5-min Rain = 0
KPD4 051548Z 19004KT 22/18 A3008 RMK A01 T02210176  RH  076%=      5-min Rain = 0
KPD4 051549Z 19004KT 22/18 A3008 RMK A01 T02200176  RH  076%=      5-min Rain = 0
KPD4 051550Z 18005KT 22/18 A3008 RMK A01 T02200178  RH  077%=      5-min Rain = 0
KPD4 051551Z 17005KT 22/18 A3008 RMK A01 T02200181  RH  078%=      5-min Rain = 0
KPD4 051552Z 18006KT 22/18 A3008 RMK A01 T02200181  RH  079%=      5-min Rain = 0
KPD4 051553Z 17006KT 22/18 A3008 RMK A01 T02190180  RH  078%=      5-min Rain = 0
KPD4 051554Z 17007KT 22/18 A3008 RMK A01 T02200180  RH  078%=      5-min Rain = 0
KPD4 051555Z 17007KT 22/18 A3008 RMK A01 T02210181  RH  078%=      5-min Rain = 0
KPD4 051556Z 18006KT 22/18 A3008 RMK A01 T02210181  RH  078%=      5-min Rain = 0
KPD4 051557Z 20006KT 22/18 A3008 RMK A01 T02210181  RH  078%=      5-min Rain = 0
KPD4 051558Z 21005KT 22/18 A3008 RMK A01 T02220180  RH  077%=      5-min Rain = 0
KPD4 051559Z 22004KT 22/18 A3008 RMK A01 T02210180  RH  077%=      5-min Rain = 0
KPD4 051600Z 22006KT 22/18 A3008 RMK A01 T02200180  RH  078%=      5-min Rain = 0
KPD4 051601Z 22005KT 22/18 A3008 RMK A01 T02200180  RH  078%=      5-min Rain = 0
KPD4 051602Z 21005KT 22/18 A3008 RMK A01 T02200180  RH  078%=      5-min Rain = 0
KPD4 051603Z 21005KT 22/18 A3008 RMK A01 T02210179  RH  077%=      5-min Rain = 0
KPD4 051604Z 20006KT 22/18 A3008 RMK A01 T02210180  RH  078%=      5-min Rain = 0
KPD4 051605Z 21006KT 22/18 A3008 RMK A01 T02210180  RH  077%=      5-min Rain = 0
KPD4 051606Z 20005KT 22/18 A3008 RMK A01 T02210180  RH  077%=      5-min Rain = 0
KPD4 051607Z 19005KT 22/18 A3008 RMK A01 T02210180  RH  077%=      5-min Rain = 0
KPD4 051608Z 21006KT 22/18 A3008 RMK A01 T02220183  RH  078%=      5-min Rain = 0
KPD4 051609Z 22007KT 22/18 A3008 RMK A01 T02230183  RH  078%=      5-min Rain = 0
KPD4 051610Z 22006KT 22/18 A3008 RMK A01 T02230181  RH  077%=      5-min Rain = 0
KPD4 051611Z 23005KT 22/18 A3008 RMK A01 T02230181  RH  077%=      5-min Rain = 0
KPD4 051612Z 23005KT 22/18 A3008 RMK A01 T02230181  RH  077%=      5-min Rain = 0
KPD4 051613Z 22005KT 22/18 A3008 RMK A01 T02230182  RH  078%=      5-min Rain = 0
KPD4 051614Z 22005KT 22/18 A3008 RMK A01 T02230182  RH  078%=      5-min Rain = 0
KPD4 051615Z 22006KT 22/18 A3008 RMK A01 T02230182  RH  078%=      5-min Rain = 0
KPD4 051616Z 21005KT 22/18 A3008 RMK A01 T02230182  RH  078%=      5-min Rain = 0
KPD4 051617Z 23004KT 22/18 A3008 RMK A01 T02230182  RH  078%=      5-min Rain = 0
KPD4 051618Z 23006KT 22/18 A3008 RMK A01 T02230183  RH  078%=      5-min Rain = 0
KPD4 051619Z 23005KT 22/18 A3008 RMK A01 T02220181  RH  078%=      5-min Rain = 0
KPD4 051620Z 21005KT 22/18 A3008 RMK A01 T02210184  RH  079%=      5-min Rain = 0
KPD4 051621Z 20006KT 22/18 A3008 RMK A01 T02210184  RH  079%=      5-min Rain = 0
KPD4 051622Z 21007KT 22/19 A3008 RMK A01 T02220185  RH  079%=      5-min Rain = 0
KPD4 051623Z 21007KT 22/18 A3008 RMK A01 T02220184  RH  079%=      5-min Rain = 0
KPD4 051624Z 22007KT 22/18 A3008 RMK A01 T02220183  RH  078%=      5-min Rain = 0
KPD4 051625Z 22006KT 22/18 A3008 RMK A01 T02210182  RH  078%=      5-min Rain = 0
KPD4 051626Z 23006KT 22/18 A3008 RMK A01 T02220182  RH  078%=      5-min Rain = 0
KPD4 051627Z 23005KT 22/18 A3007 RMK A01 T02220181  RH  078%=      5-min Rain = 0
KPD4 051628Z 23005KT 22/18 A3008 RMK A01 T02220182  RH  078%=      5-min Rain = 0
KPD4 051629Z 23004KT 22/18 A3008 RMK A01 T02220181  RH  078%=      5-min Rain = 0
KPD4 051630Z 21006KT 22/18 A3008 RMK A01 T02220184  RH  079%=      5-min Rain = 0
KPD4 051631Z 22005KT 22/19 A3008 RMK A01 T02220185  RH  080%=      5-min Rain = 0
KPD4 051632Z 23006KT 22/19 A3008 RMK A01 T02220185  RH  080%=      5-min Rain = 0
KPD4 051633Z 22006KT 22/19 A3008 RMK A01 T02220186  RH  080%=      5-min Rain = 0
KPD4 051634Z 21006KT 22/19 A3007 RMK A01 T02220188  RH  081%=      5-min Rain = 0
KPD4 051635Z 22007KT 22/19 A3007 RMK A01 T02220185  RH  080%=      5-min Rain = 0
KPD4 051636Z 22006KT 22/19 A3007 RMK A01 T02210186  RH  080%=      5-min Rain = 0
KPD4 051637Z 22005KT 22/19 A3007 RMK A01 T02200189  RH  082%=      5-min Rain = 0
KPD4 051638Z 21006KT 22/19 A3007 RMK A01 T02210191  RH  083%=      5-min Rain = 0
KPD4 051639Z 20007KT 22/19 A3007 RMK A01 T02210187  RH  081%=      5-min Rain = 0
KPD4 051640Z 20006KT 22/19 A3007 RMK A01 T02200189  RH  082%=      5-min Rain = 0
KPD4 051641Z 21006KT 22/19 A3007 RMK A01 T02200189  RH  083%=      5-min Rain = 0
KPD4 051642Z 21007KT 22/19 A3007 RMK A01 T02200190  RH  083%=      5-min Rain = 0
KPD4 051643Z 22006KT 22/19 A3007 RMK A01 T02190187  RH  082%=      5-min Rain = 0
KPD4 051644Z 21005KT 22/19 A3007 RMK A01 T02180188  RH  083%=      5-min Rain = 0
KPD4 051645Z 21005KT 22/19 A3007 RMK A01 T02180190  RH  084%=      5-min Rain = 0
KPD4 051646Z 19006KT 22/19 A3007 RMK A01 T02180191  RH  084%=      5-min Rain = 0
KPD4 051647Z 19005KT 22/19 A3007 RMK A01 T02180192  RH  085%=      5-min Rain = 0
KPD4 051648Z 19004KT 22/19 A3007 RMK A01 T02180192  RH  086%=      5-min Rain = 0
KPD4 051649Z 20005KT 22/19 A3007 RMK A01 T02180192  RH  085%=      5-min Rain = 0
KPD4 051650Z 20005KT 22/19 A3007 RMK A01 T02170189  RH  084%=      5-min Rain = 0
KPD4 051651Z 20005KT 22/19 A3007 RMK A01 T02170191  RH  085%=      5-min Rain = 0
KPD4 051652Z 21005KT 22/19 A3007 RMK A01 T02180194  RH  086%=      5-min Rain = 0
KPD4 051653Z 21005KT 22/19 A3007 RMK A01 T02180192  RH  085%=      5-min Rain = 0
KPD4 051654Z 20005KT 22/19 A3007 RMK A01 T02190191  RH  084%=      5-min Rain = 0
KPD4 051655Z 19004KT 22/19 A3007 RMK A01 T02180193  RH  085%=      5-min Rain = 0
KPD4 051656Z 18005KT 22/19 A3007 RMK A01 T02180192  RH  085%=      5-min Rain = 0
KPD4 051657Z 18005KT 22/19 A3007 RMK A01 T02190190  RH  084%=      5-min Rain = 0
KPD4 051658Z 18004KT 22/19 A3007 RMK A01 T02190190  RH  084%=      5-min Rain = 0
KPD4 051659Z 18004KT 22/19 A3007 RMK A01 T02190191  RH  084%=      5-min Rain = 0
KPD4 051700Z 19004KT 22/19 A3007 RMK A01 T02190191  RH  084%=      5-min Rain = 0
KPD4 051701Z 18004KT 22/19 A3007 RMK A01 T02190193  RH  085%=      5-min Rain = 0
KPD4 051702Z 18004KT 22/19 A3007 RMK A01 T02190189  RH  083%=      5-min Rain = 0
KPD4 051703Z 18004KT 22/19 A3007 RMK A01 T02190194  RH  085%=      5-min Rain = 0
KPD4 051704Z 18004KT 22/19 A3007 RMK A01 T02200193  RH  084%=      5-min Rain = 0
KPD4 051705Z 19004KT 22/19 A3007 RMK A01 T02210190  RH  083%=      5-min Rain = 0
KPD4 051706Z 20004KT 22/19 A3007 RMK A01 T02210190  RH  082%=      5-min Rain = 0
KPD4 051707Z 20004KT 22/19 A3007 RMK A01 T02210188  RH  082%=      5-min Rain = 0
KPD4 051708Z 19004KT 22/19 A3007 RMK A01 T02210189  RH  082%=      5-min Rain = 0
KPD4 051709Z 18004KT 22/19 A3007 RMK A01 T02220192  RH  083%=      5-min Rain = 0
KPD4 051710Z 19004KT 22/19 A3007 RMK A01 T02230187  RH  080%=      5-min Rain = 0
KPD4 051711Z 20004KT 23/19 A3007 RMK A01 T02250190  RH  081%=      5-min Rain = 0
KPD4 051712Z 20005KT 23/19 A3007 RMK A01 T02250188  RH  080%=      5-min Rain = 0
KPD4 051713Z 21004KT 23/19 A3007 RMK A01 T02250188  RH  080%=      5-min Rain = 0
KPD4 051714Z 22005KT 22/19 A3007 RMK A01 T02240190  RH  081%=      5-min Rain = 0
KPD4 051715Z 20005KT 22/19 A3007 RMK A01 T02240190  RH  081%=      5-min Rain = 0
KPD4 051716Z 20004KT 23/19 A3007 RMK A01 T02250189  RH  080%=      5-min Rain = 0
KPD4 051717Z 20004KT 23/19 A3007 RMK A01 T02250192  RH  081%=      5-min Rain = 0
KPD4 051718Z 18005KT 23/19 A3007 RMK A01 T02270190  RH  080%=      5-min Rain = 0
KPD4 051719Z 19004KT 23/19 A3007 RMK A01 T02280189  RH  079%=      5-min Rain = 0
KPD4 051720Z 18004KT 23/19 A3007 RMK A01 T02290187  RH  077%=      5-min Rain = 0
KPD4 051721Z 20003KT 23/19 A3007 RMK A01 T02290187  RH  077%=      5-min Rain = 0
KPD4 051722Z 21004KT 23/19 A3007 RMK A01 T02290187  RH  077%=      5-min Rain = 0
KPD4 051723Z 22003KT 23/19 A3007 RMK A01 T02290186  RH  077%=      5-min Rain = 0
KPD4 051724Z 20004KT 23/19 A3007 RMK A01 T02300188  RH  077%=      5-min Rain = 0
KPD4 051725Z 21003KT 23/19 A3007 RMK A01 T02300185  RH  076%=      5-min Rain = 0
KPD4 051726Z 22003KT 23/19 A3007 RMK A01 T02310186  RH  076%=      5-min Rain = 0
KPD4 051727Z 20005KT 23/19 A3007 RMK A01 T02320187  RH  076%=      5-min Rain = 0
KPD4 051728Z 20004KT 23/19 A3007 RMK A01 T02320185  RH  075%=      5-min Rain = 0
KPD4 051729Z 20004KT 23/19 A3007 RMK A01 T02320187  RH  076%=      5-min Rain = 0
KPD4 051730Z 19004KT 23/19 A3007 RMK A01 T02330186  RH  075%=      5-min Rain = 0
KPD4 051731Z 19003KT 23/19 A3007 RMK A01 T02340186  RH  074%=      5-min Rain = 0
KPD4 051732Z 19002KT 24/18 A3007 RMK A01 T02350184  RH  073%=      5-min Rain = 0
KPD4 051733Z 20005KT 24/19 A3007 RMK A01 T02350188  RH  075%=      5-min Rain = 0
KPD4 051734Z 20004KT 24/19 A3007 RMK A01 T02360188  RH  074%=      5-min Rain = 0
KPD4 051735Z 22002KT 24/19 A3006 RMK A01 T02360186  RH  073%=      5-min Rain = 0
KPD4 051736Z 20003KT 24/19 A3006 RMK A01 T02350186  RH  074%=      5-min Rain = 0
KPD4 051737Z 17004KT 24/19 A3006 RMK A01 T02360187  RH  074%=      5-min Rain = 0
KPD4 051738Z 18003KT 24/19 A3006 RMK A01 T02360187  RH  074%=      5-min Rain = 0
KPD4 051739Z 17002KT 24/19 A3006 RMK A01 T02360185  RH  073%=      5-min Rain = 0
KPD4 051740Z 18003KT 24/19 A3006 RMK A01 T02360185  RH  073%=      5-min Rain = 0
KPD4 051741Z 21003KT 24/19 A3006 RMK A01 T02370192  RH  076%=      5-min Rain = 0
KPD4 051742Z 18005KT 24/19 A3006 RMK A01 T02380191  RH  075%=      5-min Rain = 0
KPD4 051743Z 17005KT 24/19 A3006 RMK A01 T02380188  RH  074%=      5-min Rain = 0
KPD4 051744Z 16003KT 24/19 A3006 RMK A01 T02380186  RH  073%=      5-min Rain = 0
KPD4 051745Z 18005KT 24/19 A3006 RMK A01 T02380186  RH  073%=      5-min Rain = 0
KPD4 051746Z 19004KT 24/19 A3006 RMK A01 T02380185  RH  072%=      5-min Rain = 0
KPD4 051747Z 19004KT 24/18 A3006 RMK A01 T02380184  RH  072%=      5-min Rain = 0
KPD4 051748Z 19004KT 24/18 A3006 RMK A01 T02370181  RH  071%=      5-min Rain = 0
KPD4 051749Z 19004KT 24/18 A3006 RMK A01 T02380181  RH  070%=      5-min Rain = 0
KPD4 051750Z 19004KT 24/18 A3006 RMK A01 T02380182  RH  071%=      5-min Rain = 0
KPD4 051751Z 17005KT 24/18 A3006 RMK A01 T02390184  RH  071%=      5-min Rain = 0
KPD4 051752Z 15005KT 24/18 A3006 RMK A01 T02400183  RH  070%=      5-min Rain = 0
KPD4 051753Z 16005KT 24/18 A3006 RMK A01 T02410184  RH  070%=      5-min Rain = 0
KPD4 051754Z 15005KT 24/18 A3006 RMK A01 T02420183  RH  070%=      5-min Rain = 0
KPD4 051755Z 15005KT 24/18 A3006 RMK A01 T02420183  RH  070%=      5-min Rain = 0
KPD4 051756Z 14004KT 24/18 A3006 RMK A01 T02410179  RH  068%=      5-min Rain = 0
KPD4 051757Z 14004KT 24/18 A3006 RMK A01 T02410179  RH  068%=      5-min Rain = 0
KPD4 051758Z 13004KT 24/18 A3006 RMK A01 T02410179  RH  068%=      5-min Rain = 0
KPD4 051759Z 13004KT 24/18 A3006 RMK A01 T02410175  RH  066%=      5-min Rain = 0
KPD4 051800Z 15004KT 24/18 A3006 RMK A01 T02420176  RH  066%=      5-min Rain = 0
KPD4 051801Z 14003KT 24/17 A3006 RMK A01 T02420170  RH  064%=      5-min Rain = 0
KPD4 051802Z 14003KT 24/17 A3006 RMK A01 T02420171  RH  064%=      5-min Rain = 0
KPD4 051803Z 15003KT 24/17 A3006 RMK A01 T02420172  RH  065%=      5-min Rain = 0
KPD4 051804Z 18002KT 24/17 A3006 RMK A01 T02430172  RH  064%=      5-min Rain = 0
KPD4 051805Z 20002KT 24/17 A3006 RMK A01 T02440172  RH  064%=      5-min Rain = 0
KPD4 051806Z 17002KT 25/17 A3006 RMK A01 T02450171  RH  064%=      5-min Rain = 0
KPD4 051807Z 18004KT 25/17 A3006 RMK A01 T02450171  RH  063%=      5-min Rain = 0
KPD4 051808Z 18003KT 25/18 A3006 RMK A01 T02450175  RH  065%=      5-min Rain = 0
KPD4 051809Z 18002KT 25/17 A3006 RMK A01 T02450173  RH  064%=      5-min Rain = 0
KPD4 051810Z 14002KT 25/17 A3006 RMK A01 T02450171  RH  063%=      5-min Rain = 0
KPD4 051811Z 12003KT 25/17 A3006 RMK A01 T02450171  RH  063%=      5-min Rain = 0
KPD4 051812Z 13002KT 25/17 A3006 RMK A01 T02450171  RH  063%=      5-min Rain = 0
KPD4 051813Z 13002KT 25/17 A3006 RMK A01 T02450171  RH  063%=      5-min Rain = 0
KPD4 051814Z 12000KT 25/17 A3006 RMK A01 T02460170  RH  063%=      5-min Rain = 0
KPD4 051815Z 19000KT 25/17 A3006 RMK A01 T02460168  RH  062%=      5-min Rain = 0
KPD4 051816Z 17002KT 25/17 A3006 RMK A01 T02470169  RH  062%=      5-min Rain = 0
KPD4 051817Z 18001KT 25/17 A3006 RMK A01 T02500174  RH  063%=      5-min Rain = 0
KPD4 051818Z 15002KT 25/17 A3006 RMK A01 T02510174  RH  062%=      5-min Rain = 0
KPD4 051819Z 19001KT 25/17 A3006 RMK A01 T02520174  RH  062%=      5-min Rain = 0
KPD4 051820Z 19003KT 25/17 A3006 RMK A01 T02520174  RH  062%=      5-min Rain = 0
KPD4 051821Z 21001KT 25/17 A3006 RMK A01 T02520171  RH  061%=      5-min Rain = 0
KPD4 051822Z 22002KT 25/17 A3006 RMK A01 T02510170  RH  061%=      5-min Rain = 0
KPD4 051823Z 22002KT 25/17 A3006 RMK A01 T02490169  RH  061%=      5-min Rain = 0
KPD4 051824Z 24001KT 25/17 A3006 RMK A01 T02480169  RH  061%=      5-min Rain = 0
KPD4 051825Z 20001KT 25/17 A3006 RMK A01 T02480169  RH  061%=      5-min Rain = 0
KPD4 051826Z 18002KT 25/17 A3006 RMK A01 T02490172  RH  062%=      5-min Rain = 0
KPD4 051827Z 16002KT 25/18 A3006 RMK A01 T02520175  RH  062%=      5-min Rain = 0
KPD4 051828Z 12002KT 26/18 A3006 RMK A01 T02560175  RH  061%=      5-min Rain = 0
KPD4 051829Z 12003KT 26/17 A3006 RMK A01 T02570170  RH  059%=      5-min Rain = 0
KPD4 051830Z 11002KT 26/17 A3005 RMK A01 T02570169  RH  059%=      5-min Rain = 0
KPD4 051831Z 13003KT 26/17 A3005 RMK A01 T02560165  RH  057%=      5-min Rain = 0
KPD4 051832Z 15002KT 26/16 A3005 RMK A01 T02550161  RH  056%=      5-min Rain = 0
KPD4 051833Z 12002KT 26/17 A3005 RMK A01 T02550165  RH  058%=      5-min Rain = 0
KPD4 051834Z 11004KT 26/16 A3005 RMK A01 T02550164  RH  057%=      5-min Rain = 0
KPD4 051835Z 13002KT 26/16 A3005 RMK A01 T02560163  RH  056%=      5-min Rain = 0
KPD4 051836Z 15000KT 26/16 A3005 RMK A01 T02560162  RH  056%=      5-min Rain = 0
KPD4 051837Z 18002KT 26/16 A3005 RMK A01 T02560161  RH  056%=      5-min Rain = 0
KPD4 051838Z 16001KT 26/16 A3005 RMK A01 T02550161  RH  056%=      5-min Rain = 0
KPD4 051839Z 05000KT 26/16 A3005 RMK A01 T02550162  RH  056%=      5-min Rain = 0
KPD4 051840Z 11002KT 26/16 A3005 RMK A01 T02560164  RH  057%=      5-min Rain = 0
KPD4 051841Z 11003KT 26/16 A3005 RMK A01 T02570164  RH  057%=      5-min Rain = 0
KPD4 051842Z 15003KT 26/17 A3005 RMK A01 T02580168  RH  058%=      5-min Rain = 0
KPD4 051843Z 18003KT 26/17 A3005 RMK A01 T02590169  RH  057%=      5-min Rain = 0
KPD4 051844Z 20003KT 26/17 A3005 RMK A01 T02610168  RH  056%=      5-min Rain = 0
KPD4 051845Z 21003KT 26/17 A3005 RMK A01 T02610168  RH  056%=      5-min Rain = 0
KPD4 051846Z 20002KT 26/17 A3005 RMK A01 T02600165  RH  056%=      5-min Rain = 0
KPD4 051847Z 20002KT 26/17 A3005 RMK A01 T02590169  RH  058%=      5-min Rain = 0
KPD4 051848Z 21002KT 26/17 A3005 RMK A01 T02600165  RH  056%=      5-min Rain = 0
KPD4 051849Z 22000KT 26/16 A3005 RMK A01 T02600164  RH  055%=      5-min Rain = 0
KPD4 051850Z 06000KT 26/17 A3005 RMK A01 T02600166  RH  056%=      5-min Rain = 0
KPD4 051851Z 01000KT 26/17 A3005 RMK A01 T02610167  RH  056%=      5-min Rain = 0
KPD4 051852Z 34000KT 26/17 A3004 RMK A01 T02630166  RH  055%=      5-min Rain = 0
KPD4 051853Z 21001KT 27/17 A3004 RMK A01 T02660168  RH  055%=      5-min Rain = 0
KPD4 051854Z 23002KT 27/16 A3004 RMK A01 T02670161  RH  052%=      5-min Rain = 0
KPD4 051855Z 24002KT 27/16 A3004 RMK A01 T02670163  RH  053%=      5-min Rain = 0
KPD4 051856Z 27002KT 27/16 A3004 RMK A01 T02660164  RH  053%=      5-min Rain = 0
KPD4 051857Z 28001KT 26/17 A3004 RMK A01 T02640165  RH  055%=      5-min Rain = 0
KPD4 051858Z 30002KT 26/17 A3004 RMK A01 T02630165  RH  055%=      5-min Rain = 0
KPD4 051859Z 30001KT 26/17 A3004 RMK A01 T02640168  RH  056%=      5-min Rain = 0
KPD4 051900Z 19001KT 27/17 A3004 RMK A01 T02650169  RH  056%=      5-min Rain = 0
KPD4 051901Z 20002KT 27/17 A3004 RMK A01 T02670169  RH  055%=      5-min Rain = 0
KPD4 051902Z 15003KT 27/17 A3004 RMK A01 T02690168  RH  054%=      5-min Rain = 0
KPD4 051903Z 14002KT 27/17 A3004 RMK A01 T02690166  RH  053%=      5-min Rain = 0
KPD4 051904Z 09001KT 27/17 A3004 RMK A01 T02680167  RH  054%=      5-min Rain = 0
KPD4 051905Z 06002KT 27/17 A3004 RMK A01 T02680167  RH  054%=      5-min Rain = 0
KPD4 051906Z 03001KT 27/17 A3004 RMK A01 T02680166  RH  054%=      5-min Rain = 0
KPD4 051907Z 03000KT 27/17 A3004 RMK A01 T02680165  RH  053%=      5-min Rain = 0
KPD4 051908Z 00001KT 27/17 A3003 RMK A01 T02700171  RH  055%=      5-min Rain = 0
KPD4 051909Z 24001KT 27/17 A3003 RMK A01 T02730168  RH  053%=      5-min Rain = 0
KPD4 051910Z 25001KT 27/17 A3003 RMK A01 T02740169  RH  053%=      5-min Rain = 0
KPD4 051911Z 35000KT 28/17 A3003 RMK A01 T02750169  RH  052%=      5-min Rain = 0
KPD4 051912Z 21002KT 28/18 A3003 RMK A01 T02790176  RH  054%=      5-min Rain = 0
KPD4 051913Z 10003KT 29/18 A3003 RMK A01 T02860176  RH  051%=      5-min Rain = 0
KPD4 051914Z 10003KT 29/18 A3003 RMK A01 T02880176  RH  051%=      5-min Rain = 0
KPD4 051915Z 11004KT 29/17 A3003 RMK A01 T02880171  RH  049%=      5-min Rain = 0
KPD4 051916Z 15005KT 29/17 A3003 RMK A01 T02850173  RH  051%=      5-min Rain = 0
KPD4 051917Z 13004KT 29/17 A3003 RMK A01 T02850170  RH  050%=      5-min Rain = 0
KPD4 051918Z 09003KT 28/17 A3003 RMK A01 T02820167  RH  050%=      5-min Rain = 0
KPD4 051919Z 11003KT 28/17 A3003 RMK A01 T02790169  RH  051%=      5-min Rain = 0
KPD4 051920Z 11003KT 28/17 A3003 RMK A01 T02770169  RH  052%=      5-min Rain = 0
KPD4 051921Z 10004KT 28/17 A3002 RMK A01 T02770168  RH  051%=      5-min Rain = 0
KPD4 051922Z 08006KT 28/17 A3002 RMK A01 T02790168  RH  051%=      5-min Rain = 0
KPD4 051923Z 07006KT 28/17 A3002 RMK A01 T02810169  RH  051%=      5-min Rain = 0
KPD4 051924Z 11006KT 29/17 A3002 RMK A01 T02850167  RH  049%=      5-min Rain = 0
KPD4 051925Z 13005KT 29/17 A3002 RMK A01 T02850166  RH  048%=      5-min Rain = 0
KPD4 051926Z 10004KT 29/17 A3002 RMK A01 T02860165  RH  048%=      5-min Rain = 0
KPD4 051927Z 13004KT 29/16 A3002 RMK A01 T02860161  RH  047%=      5-min Rain = 0
KPD4 051928Z 09003KT 28/16 A3002 RMK A01 T02810161  RH  048%=      5-min Rain = 0
KPD4 051929Z 08002KT 28/16 A3002 RMK A01 T02790162  RH  049%=      5-min Rain = 0
KPD4 051930Z 09002KT 28/16 A3002 RMK A01 T02790163  RH  049%=      5-min Rain = 0
KPD4 051931Z 14005KT 28/16 A3002 RMK A01 T02810161  RH  048%=      5-min Rain = 0
KPD4 051932Z 11005KT 28/16 A3002 RMK A01 T02830156  RH  046%=      5-min Rain = 0
KPD4 051933Z 13004KT 28/16 A3002 RMK A01 T02820155  RH  046%=      5-min Rain = 0
KPD4 051934Z 13004KT 28/16 A3002 RMK A01 T02800158  RH  047%=      5-min Rain = 0
KPD4 051935Z 10004KT 28/16 A3002 RMK A01 T02800159  RH  048%=      5-min Rain = 0
KPD4 051936Z 05004KT 28/16 A3002 RMK A01 T02810160  RH  048%=      5-min Rain = 0
KPD4 051937Z 05003KT 28/16 A3002 RMK A01 T02820161  RH  048%=      5-min Rain = 0
KPD4 051938Z 10003KT 28/17 A3002 RMK A01 T02840165  RH  048%=      5-min Rain = 0
KPD4 051939Z 10003KT 29/16 A3002 RMK A01 T02880158  RH  045%=      5-min Rain = 0
KPD4 051940Z 11005KT 29/16 A3002 RMK A01 T02890156  RH  044%=      5-min Rain = 0
KPD4 051941Z 12004KT 29/16 A3002 RMK A01 T02890155  RH  044%=      5-min Rain = 0
KPD4 051942Z 11004KT 29/16 A3002 RMK A01 T02880155  RH  044%=      5-min Rain = 0
KPD4 051943Z 11004KT 29/15 A3002 RMK A01 T02880150  RH  043%=      5-min Rain = 0
KPD4 051944Z 16003KT 29/15 A3002 RMK A01 T02900152  RH  043%=      5-min Rain = 0
KPD4 051945Z 09003KT 29/16 A3002 RMK A01 T02920157  RH  044%=      5-min Rain = 0
KPD4 051946Z 11004KT 30/15 A3002 RMK A01 T02960151  RH  041%=      5-min Rain = 0
KPD4 051947Z 08004KT 30/15 A3002 RMK A01 T02970149  RH  041%=      5-min Rain = 0
KPD4 051948Z 08002KT 30/15 A3002 RMK A01 T03010154  RH  041%=      5-min Rain = 0
KPD4 051949Z 14003KT 31/15 A3002 RMK A01 T03050153  RH  040%=      5-min Rain = 0
KPD4 051950Z 17005KT 31/16 A3002 RMK A01 T03050155  RH  040%=      5-min Rain = 0
KPD4 051951Z 19004KT 30/16 A3001 RMK A01 T03020155  RH  041%=      5-min Rain = 0
KPD4 051952Z 21004KT 30/15 A3001 RMK A01 T02960149  RH  041%=      5-min Rain = 0
KPD4 051953Z 25002KT 29/15 A3002 RMK A01 T02910151  RH  043%=      5-min Rain = 0
KPD4 051954Z 04002KT 29/15 A3002 RMK A01 T02900153  RH  043%=      5-min Rain = 0
KPD4 051955Z 06004KT 29/16 A3002 RMK A01 T02920157  RH  044%=      5-min Rain = 0
KPD4 051956Z 11005KT 30/16 A3001 RMK A01 T02960161  RH  044%=      5-min Rain = 0
KPD4 051957Z 12008KT 30/16 A3001 RMK A01 T02990158  RH  042%=      5-min Rain = 0
KPD4 051958Z 09007KT 30/16 A3001 RMK A01 T02970158  RH  043%=      5-min Rain = 0
KPD4 051959Z 09005KT 30/16 A3001 RMK A01 T02950157  RH  043%=      5-min Rain = 0
KPD4 052000Z 11004KT 29/16 A3001 RMK A01 T02920158  RH  044%=      5-min Rain = 0
KPD4 052001Z 10003G8KT 29/16 A3001 RMK A01 T02930157  RH  044%=      5-min Rain = 0
KPD4 052002Z 10007KT 30/16 A3001 RMK A01 T02950158  RH  044%=      5-min Rain = 0
KPD4 052003Z 08006KT 30/16 A3001 RMK A01 T02970158  RH  043%=      5-min Rain = 0
KPD4 052004Z 08006KT 30/16 A3001 RMK A01 T02970159  RH  043%=      5-min Rain = 0
KPD4 052005Z 09007KT 30/16 A3001 RMK A01 T02970159  RH  043%=      5-min Rain = 0
KPD4 052006Z 07006KT 30/16 A3001 RMK A01 T02970156  RH  042%=      5-min Rain = 0
KPD4 052007Z 09004KT 30/15 A3001 RMK A01 T02980152  RH  041%=      5-min Rain = 0
KPD4 052008Z 10006KT 30/16 A3001 RMK A01 T02970158  RH  043%=      5-min Rain = 0
KPD4 052009Z 09005KT 30/16 A3001 RMK A01 T02970158  RH  043%=      5-min Rain = 0
KPD4 052010Z 09007KT 30/16 A3001 RMK A01 T02970161  RH  044%=      5-min Rain = 0
KPD4 052011Z 09007KT 30/16 A3001 RMK A01 T03030160  RH  042%=      5-min Rain = 0
KPD4 052012Z 10006KT 30/16 A3001 RMK A01 T03020157  RH  042%=      5-min Rain = 0
KPD4 052013Z 10006KT 30/16 A3001 RMK A01 T02980156  RH  042%=      5-min Rain = 0
KPD4 052014Z 09003KT 30/16 A3001 RMK A01 T02960155  RH  043%=      5-min Rain = 0
KPD4 052015Z 06003KT 30/16 A3001 RMK A01 T02950157  RH  043%=      5-min Rain = 0
KPD4 052016Z 07003KT 30/16 A3001 RMK A01 T02950155  RH  043%=      5-min Rain = 0
KPD4 052017Z 09005KT 30/16 A3001 RMK A01 T02950160  RH  044%=      5-min Rain = 0
KPD4 052018Z 08006KT 30/15 A3001 RMK A01 T02990154  RH  041%=      5-min Rain = 0
KPD4 052019Z 08004KT 30/15 A3001 RMK A01 T02980153  RH  041%=      5-min Rain = 0
KPD4 052020Z 07005KT 30/15 A3001 RMK A01 T02960153  RH  042%=      5-min Rain = 0
KPD4 052021Z 07005KT 30/15 A3001 RMK A01 T03010151  RH  040%=      5-min Rain = 0
KPD4 052022Z 07005KT 30/15 A3001 RMK A01 T03030151  RH  040%=      5-min Rain = 0
KPD4 052023Z 09006KT 30/16 A3001 RMK A01 T03010156  RH  041%=      5-min Rain = 0
KPD4 052024Z 13006KT 30/16 A3001 RMK A01 T03010155  RH  041%=      5-min Rain = 0
KPD4 052025Z 11007KT 31/16 A3001 RMK A01 T03050155  RH  040%=      5-min Rain = 0
KPD4 052026Z 09007KT 31/15 A3001 RMK A01 T03080150  RH  038%=      5-min Rain = 0
KPD4 052027Z 09005KT 31/15 A3001 RMK A01 T03050147  RH  038%=      5-min Rain = 0
KPD4 052028Z 07004KT 30/15 A3001 RMK A01 T03010145  RH  039%=      5-min Rain = 0
KPD4 052029Z 07003KT 30/14 A3001 RMK A01 T02980144  RH  039%=      5-min Rain = 0
KPD4 052030Z 07003KT 30/14 A3001 RMK A01 T02960144  RH  039%=      5-min Rain = 0
KPD4 052031Z 08005KT 30/14 A3001 RMK A01 T02950144  RH  040%=      5-min Rain = 0
KPD4 052032Z 08005KT 30/15 A3001 RMK A01 T02950145  RH  040%=      5-min Rain = 0
KPD4 052033Z 11004KT 30/15 A3001 RMK A01 T02980147  RH  040%=      5-min Rain = 0
KPD4 052034Z 10005KT 30/14 A3001 RMK A01 T02990144  RH  039%=      5-min Rain = 0
KPD4 052035Z 11008KT 30/15 A3001 RMK A01 T02980145  RH  039%=      5-min Rain = 0
KPD4 052036Z 10006KT 30/15 A3001 RMK A01 T02980145  RH  039%=      5-min Rain = 0
KPD4 052037Z 10004KT 30/15 A3001 RMK A01 T02980145  RH  039%=      5-min Rain = 0
KPD4 052038Z 09002KT 30/14 A3001 RMK A01 T02980143  RH  039%=      5-min Rain = 0
KPD4 052039Z 10001KT 30/15 A3001 RMK A01 T02970148  RH  040%=      5-min Rain = 0
KPD4 052040Z 10002KT 30/15 A3001 RMK A01 T03000146  RH  039%=      5-min Rain = 0
KPD4 052041Z 13005KT 30/15 A3001 RMK A01 T03020146  RH  039%=      5-min Rain = 0
KPD4 052042Z 13007KT 30/14 A3001 RMK A01 T03040143  RH  038%=      5-min Rain = 0
KPD4 052043Z 13004KT 30/15 A3001 RMK A01 T03040145  RH  038%=      5-min Rain = 0
KPD4 052044Z 10009KT 31/14 A3001 RMK A01 T03070144  RH  037%=      5-min Rain = 0
KPD4 052045Z 09008KT 31/14 A3001 RMK A01 T03080141  RH  036%=      5-min Rain = 0
KPD4 052046Z 10007KT 31/14 A3001 RMK A01 T03070144  RH  037%=      5-min Rain = 0
KPD4 052047Z 07005KT 31/14 A3001 RMK A01 T03080139  RH  036%=      5-min Rain = 0
KPD4 052048Z 06004KT 31/14 A3001 RMK A01 T03060139  RH  036%=      5-min Rain = 0
KPD4 052049Z 09007KT 31/14 A3001 RMK A01 T03050140  RH  036%=      5-min Rain = 0
KPD4 052050Z 11006KT 31/14 A3001 RMK A01 T03050141  RH  037%=      5-min Rain = 0
KPD4 052051Z 14008G13KT 31/14 A3001 RMK A01 T03070138  RH  036%=      5-min Rain = 0
KPD4 052052Z 17007KT 31/14 A3001 RMK A01 T03110137  RH  035%=      5-min Rain = 0
KPD4 052053Z 16008KT 31/13 A30 RMK A01 T03110134  RH  034%=      5-min Rain = 0
KPD4 052054Z 13009KT 31/13 A3001 RMK A01 T03100134  RH  034%=      5-min Rain = 0
KPD4 052055Z 12007KT 31/13 A3001 RMK A01 T03100133  RH  034%=      5-min Rain = 0
KPD4 052056Z 13007KT 31/13 A3001 RMK A01 T03090133  RH  034%=      5-min Rain = 0
KPD4 052057Z 13005KT 31/13 A3001 RMK A01 T03070130  RH  034%=      5-min Rain = 0
KPD4 052058Z 12006KT 31/13 A3001 RMK A01 T03050134  RH  035%=      5-min Rain = 0
KPD4 052059Z 09004KT 30/14 A3001 RMK A01 T03040136  RH  036%=      5-min Rain = 0
KPD4 052100Z 12004KT 31/13 A3001 RMK A01 T03050133  RH  035%=      5-min Rain = 0
KPD4 052101Z 14002KT 31/14 A3001 RMK A01 T03050136  RH  036%=      5-min Rain = 0
KPD4 052102Z 23002KT 31/13 A3001 RMK A01 T03050134  RH  035%=      5-min Rain = 0
KPD4 052103Z 21002KT 31/13 A3001 RMK A01 T03060134  RH  035%=      5-min Rain = 0
KPD4 052104Z 15008KT 31/14 A30 RMK A01 T03080138  RH  035%=      5-min Rain = 0
KPD4 052105Z 13008KT 31/14 A3001 RMK A01 T03110137  RH  035%=      5-min Rain = 0
KPD4 052106Z 13005KT 31/14 A3001 RMK A01 T03090135  RH  035%=      5-min Rain = 0
KPD4 052107Z 09005KT 31/14 A30 RMK A01 T03050136  RH  036%=      5-min Rain = 0
KPD4 052108Z 09004KT 30/14 A30 RMK A01 T03040137  RH  036%=      5-min Rain = 0
KPD4 052109Z 14004KT 31/14 A30 RMK A01 T03060138  RH  036%=      5-min Rain = 0
KPD4 052110Z 17005KT 31/14 A30 RMK A01 T03080136  RH  035%=      5-min Rain = 0
KPD4 052111Z 15006KT 31/14 A30 RMK A01 T03080137  RH  035%=      5-min Rain = 0
KPD4 052112Z 14005KT 31/14 A30 RMK A01 T03070137  RH  035%=      5-min Rain = 0
KPD4 052113Z 15004KT 31/14 A30 RMK A01 T03070138  RH  035%=      5-min Rain = 0
KPD4 052114Z 14005KT 31/14 A30 RMK A01 T03060136  RH  035%=      5-min Rain = 0
KPD4 052115Z 12006KT 31/14 A30 RMK A01 T03060140  RH  036%=      5-min Rain = 0
KPD4 052116Z 13006KT 31/14 A30 RMK A01 T03090142  RH  036%=      5-min Rain = 0
KPD4 052117Z 16006KT 31/14 A30 RMK A01 T03130144  RH  036%=      5-min Rain = 0
KPD4 052118Z 16006KT 32/14 A30 RMK A01 T03160140  RH  034%=      5-min Rain = 0
KPD4 052119Z 14007KT 31/14 A30 RMK A01 T03140142  RH  035%=      5-min Rain = 0
KPD4 052120Z 17006KT 31/14 A30 RMK A01 T03140140  RH  035%=      5-min Rain = 0
KPD4 052121Z 17004KT 31/14 A30 RMK A01 T03130141  RH  035%=      5-min Rain = 0
KPD4 052122Z 13007KT 31/14 A30 RMK A01 T03120143  RH  036%=      5-min Rain = 0
KPD4 052123Z 14005KT 31/14 A30 RMK A01 T03130143  RH  036%=      5-min Rain = 0
KPD4 052124Z 12004KT 31/14 A30 RMK A01 T03140144  RH  036%=      5-min Rain = 0
KPD4 052125Z 13006KT 32/15 A30 RMK A01 T03150147  RH  036%=      5-min Rain = 0
KPD4 052126Z 14010KT 32/14 A30 RMK A01 T03160144  RH  035%=      5-min Rain = 0
KPD4 052127Z 12008KT 31/14 A30 RMK A01 T03130143  RH  036%=      5-min Rain = 0
KPD4 052128Z 14004KT 31/14 A30 RMK A01 T03100143  RH  036%=      5-min Rain = 0
KPD4 052129Z 11003KT 31/14 A30 RMK A01 T03090143  RH  036%=      5-min Rain = 0
KPD4 052130Z 12006KT 31/15 A30 RMK A01 T03080149  RH  038%=      5-min Rain = 0
KPD4 052131Z 12009KT 31/15 A30 RMK A01 T03090148  RH  038%=      5-min Rain = 0
KPD4 052132Z 13008KT 31/15 A30 RMK A01 T03090147  RH  037%=      5-min Rain = 0
KPD4 052133Z 12007KT 31/15 A30 RMK A01 T03070146  RH  038%=      5-min Rain = 0
KPD4 052134Z 12010KT 31/15 A30 RMK A01 T03070149  RH  038%=      5-min Rain = 0
KPD4 052135Z 11007KT 31/15 A30 RMK A01 T03110146  RH  037%=      5-min Rain = 0
KPD4 052136Z 12006KT 31/14 A30 RMK A01 T03090144  RH  037%=      5-min Rain = 0
KPD4 052137Z 12004KT 31/15 A30 RMK A01 T03050145  RH  038%=      5-min Rain = 0
KPD4 052138Z 12003KT 30/14 A30 RMK A01 T03040143  RH  038%=      5-min Rain = 0
KPD4 052139Z 19003KT 30/14 A30 RMK A01 T03040144  RH  038%=      5-min Rain = 0
KPD4 052140Z 17004KT 30/15 A30 RMK A01 T03040146  RH  038%=      5-min Rain = 0
KPD4 052141Z 14007KT 31/15 A30 RMK A01 T03080150  RH  038%=      5-min Rain = 0
KPD4 052142Z 13010KT 31/15 A2999 RMK A01 T03100147  RH  037%=      5-min Rain = 0
KPD4 052143Z 13009KT 31/15 A2999 RMK A01 T03110146  RH  037%=      5-min Rain = 0
KPD4 052144Z 12010KT 31/15 A2999 RMK A01 T03110147  RH  037%=      5-min Rain = 0
KPD4 052145Z 13012KT 31/15 A2999 RMK A01 T03100148  RH  037%=      5-min Rain = 0
KPD4 052146Z 13011KT 31/15 A2999 RMK A01 T03110146  RH  037%=      5-min Rain = 0
KPD4 052147Z 13007KT 31/15 A2999 RMK A01 T03110145  RH  037%=      5-min Rain = 0
KPD4 052148Z 14007KT 31/15 A2999 RMK A01 T03090146  RH  037%=      5-min Rain = 0
KPD4 052149Z 13010KT 31/15 A2999 RMK A01 T03080146  RH  037%=      5-min Rain = 0
KPD4 052150Z 13005G10KT 31/14 A2999 RMK A01 T03080143  RH  037%=      5-min Rain = 0
KPD4 052151Z 15002KT 31/14 A2999 RMK A01 T03060144  RH  037%=      5-min Rain = 0
KPD4 052152Z 15007KT 31/15 A2999 RMK A01 T03060145  RH  038%=      5-min Rain = 0
KPD4 052153Z 15008KT 31/14 A2999 RMK A01 T03070142  RH  037%=      5-min Rain = 0
KPD4 052154Z 14006KT 31/14 A2999 RMK A01 T03070143  RH  037%=      5-min Rain = 0
KPD4 052155Z 13006KT 31/14 A2999 RMK A01 T03070143  RH  037%=      5-min Rain = 0
KPD4 052156Z 14007KT 31/15 A2999 RMK A01 T03070145  RH  037%=      5-min Rain = 0
KPD4 052157Z 16009KT 31/14 A2999 RMK A01 T03080142  RH  036%=      5-min Rain = 0
KPD4 052158Z 16007KT 31/14 A2999 RMK A01 T03100141  RH  036%=      5-min Rain = 0
KPD4 052159Z 13005G10KT 31/14 A2998 RMK A01 T03070141  RH  036%=      5-min Rain = 0
KPD4 052200Z 10009KT 31/14 A2998 RMK A01 T03060140  RH  036%=      5-min Rain = 0
KPD4 052201Z 09008KT 31/14 A2998 RMK A01 T03060141  RH  037%=      5-min Rain = 0
KPD4 052202Z 08008KT 31/14 A2998 RMK A01 T03070141  RH  036%=      5-min Rain = 0
KPD4 052203Z 06005KT 31/14 A2998 RMK A01 T03080139  RH  036%=      5-min Rain = 0
KPD4 052204Z 09007KT 31/14 A2998 RMK A01 T03070142  RH  037%=      5-min Rain = 0
KPD4 052205Z 09006KT 31/14 A2998 RMK A01 T03080140  RH  036%=      5-min Rain = 0
KPD4 052206Z 10008KT 31/14 A2998 RMK A01 T03080140  RH  036%=      5-min Rain = 0
KPD4 052207Z 10007KT 31/14 A2998 RMK A01 T03080142  RH  036%=      5-min Rain = 0
KPD4 052208Z 12008KT 31/15 A2998 RMK A01 T03090146  RH  037%=      5-min Rain = 0
KPD4 052209Z 12010KT 31/14 A2998 RMK A01 T03130142  RH  035%=      5-min Rain = 0
KPD4 052210Z 12010KT 31/14 A2998 RMK A01 T03130142  RH  035%=      5-min Rain = 0
KPD4 052211Z 12010KT 31/14 A2998 RMK A01 T03120142  RH  036%=      5-min Rain = 0
KPD4 052212Z 13007KT 31/14 A2998 RMK A01 T03100142  RH  036%=      5-min Rain = 0
KPD4 052213Z 12012KT 31/14 A2998 RMK A01 T03090142  RH  036%=      5-min Rain = 0
KPD4 052214Z 13011KT 31/14 A2998 RMK A01 T03090139  RH  035%=      5-min Rain = 0
KPD4 052215Z 13008KT 31/14 A2998 RMK A01 T03080138  RH  035%=      5-min Rain = 0
KPD4 052216Z 13006KT 31/14 A2998 RMK A01 T03070139  RH  036%=      5-min Rain = 0
KPD4 052217Z 14004KT 31/14 A2998 RMK A01 T03070140  RH  036%=      5-min Rain = 0
KPD4 052218Z 12005G11KT 31/14 A2998 RMK A01 T03100142  RH  036%=      5-min Rain = 0
KPD4 052219Z 11008KT 31/14 A2998 RMK A01 T03130143  RH  036%=      5-min Rain = 0
KPD4 052220Z 12010KT 31/14 A2998 RMK A01 T03140139  RH  035%=      5-min Rain = 0
KPD4 052221Z 11010KT 31/14 A2998 RMK A01 T03120138  RH  035%=      5-min Rain = 0
KPD4 052222Z 12008KT 31/14 A2998 RMK A01 T03070136  RH  035%=      5-min Rain = 0
KPD4 052223Z 15008KT 31/14 A2998 RMK A01 T03050144  RH  038%=      5-min Rain = 0
KPD4 052224Z 13011KT 31/15 A2998 RMK A01 T03090148  RH  038%=      5-min Rain = 0
KPD4 052225Z 12010KT 31/15 A2998 RMK A01 T03120145  RH  036%=      5-min Rain = 0
KPD4 052226Z 13008KT 31/14 A2998 RMK A01 T03110142  RH  036%=      5-min Rain = 0
KPD4 052227Z 12008KT 31/15 A2997 RMK A01 T03080146  RH  037%=      5-min Rain = 0
KPD4 052228Z 11007KT 31/15 A2997 RMK A01 T03070148  RH  038%=      5-min Rain = 0
KPD4 052229Z 11012G17KT 31/15 A2997 RMK A01 T03060145  RH  038%=      5-min Rain = 0
KPD4 052230Z 11009KT 31/14 A2997 RMK A01 T03060143  RH  037%=      5-min Rain = 0
KPD4 052231Z 12010KT 30/15 A2997 RMK A01 T03040146  RH  038%=      5-min Rain = 0
KPD4 052232Z 13013KT 31/15 A2997 RMK A01 T03060145  RH  038%=      5-min Rain = 0
KPD4 052233Z 13012KT 31/14 A2997 RMK A01 T03070143  RH  037%=      5-min Rain = 0
KPD4 052234Z 13009KT 31/14 A2998 RMK A01 T03050144  RH  038%=      5-min Rain = 0
KPD4 052235Z 14006G12KT 30/14 A2997 RMK A01 T03040144  RH  038%=      5-min Rain = 0
KPD4 052236Z 12011KT 30/15 A2997 RMK A01 T03030146  RH  038%=      5-min Rain = 0
KPD4 052237Z 14010KT 31/15 A2997 RMK A01 T03050147  RH  038%=      5-min Rain = 0
KPD4 052238Z 12009KT 31/15 A2997 RMK A01 T03070148  RH  038%=      5-min Rain = 0
KPD4 052239Z 11008KT 31/15 A2997 RMK A01 T03080148  RH  038%=      5-min Rain = 0
KPD4 052240Z 13010KT 31/15 A2997 RMK A01 T03090150  RH  038%=      5-min Rain = 0
KPD4 052241Z 14010KT 31/15 A2997 RMK A01 T03100147  RH  037%=      5-min Rain = 0
KPD4 052242Z 14007KT 31/15 A2997 RMK A01 T03070145  RH  037%=      5-min Rain = 0
KPD4 052243Z 13008KT 30/15 A2997 RMK A01 T03040149  RH  039%=      5-min Rain = 0
KPD4 052244Z 13011KT 31/15 A2997 RMK A01 T03070150  RH  039%=      5-min Rain = 0
KPD4 052245Z 14008KT 31/15 A2997 RMK A01 T03060150  RH  039%=      5-min Rain = 0
KPD4 052246Z 15009KT 31/15 A2997 RMK A01 T03070154  RH  040%=      5-min Rain = 0
KPD4 052247Z 13008KT 31/15 A2997 RMK A01 T03100151  RH  038%=      5-min Rain = 0
KPD4 052248Z 12008KT 31/15 A2998 RMK A01 T03100150  RH  038%=      5-min Rain = 0
KPD4 052249Z 11010KT 31/15 A2998 RMK A01 T03080150  RH  038%=      5-min Rain = 0
KPD4 052250Z 12011KT 31/15 A2998 RMK A01 T03080149  RH  038%=      5-min Rain = 0
KPD4 052251Z 12009KT 31/15 A2998 RMK A01 T03070148  RH  038%=      5-min Rain = 0
KPD4 052252Z 12010KT 31/15 A2998 RMK A01 T03050149  RH  039%=      5-min Rain = 0
KPD4 052253Z 13010KT 31/15 A2998 RMK A01 T03050149  RH  039%=      5-min Rain = 0
KPD4 052254Z 12009KT 31/15 A2998 RMK A01 T03050150  RH  039%=      5-min Rain = 0
KPD4 052255Z 13009KT 30/15 A2998 RMK A01 T03030150  RH  039%=      5-min Rain = 0
KPD4 052256Z 13008KT 30/15 A2998 RMK A01 T03030148  RH  039%=      5-min Rain = 0
KPD4 052257Z 14007KT 30/15 A2998 RMK A01 T03020149  RH  040%=      5-min Rain = 0
KPD4 052258Z 15007KT 30/15 A2998 RMK A01 T03020150  RH  040%=      5-min Rain = 0
KPD4 052259Z 13011KT 30/15 A2998 RMK A01 T03030153  RH  040%=      5-min Rain = 0
KPD4 052300Z 13008KT 30/15 A2998 RMK A01 T03040152  RH  040%=      5-min Rain = 0
KPD4 052301Z 15006KT 30/15 A2998 RMK A01 T03030153  RH  040%=      5-min Rain = 0
KPD4 052302Z 16006KT 30/15 A2998 RMK A01 T03020154  RH  041%=      5-min Rain = 0
KPD4 052303Z 15005KT 30/15 A2998 RMK A01 T03030152  RH  040%=      5-min Rain = 0
KPD4 052304Z 16003KT 30/15 A2998 RMK A01 T03020153  RH  040%=      5-min Rain = 0
KPD4 052305Z 17007KT 30/16 A2998 RMK A01 T03020155  RH  041%=      5-min Rain = 0
KPD4 052306Z 15009KT 30/16 A2998 RMK A01 T03030158  RH  041%=      5-min Rain = 0
KPD4 052307Z 14008KT 30/16 A2998 RMK A01 T03040157  RH  041%=      5-min Rain = 0
KPD4 052308Z 13007KT 30/16 A2998 RMK A01 T03020155  RH  041%=      5-min Rain = 0
KPD4 052309Z 15006KT 30/15 A2997 RMK A01 T02990154  RH  041%=      5-min Rain = 0
KPD4 052310Z 13004KT 30/15 A2997 RMK A01 T02950154  RH  042%=      5-min Rain = 0
KPD4 052311Z 16006KT 29/16 A2997 RMK A01 T02930155  RH  043%=      5-min Rain = 0
KPD4 052312Z 13007KT 29/16 A2997 RMK A01 T02920155  RH  043%=      5-min Rain = 0
KPD4 052313Z 12009KT 29/16 A2997 RMK A01 T02920155  RH  043%=      5-min Rain = 0
KPD4 052314Z 12008KT 29/15 A2997 RMK A01 T02910152  RH  043%=      5-min Rain = 0
KPD4 052315Z 12007KT 29/15 A2997 RMK A01 T02900153  RH  043%=      5-min Rain = 0
KPD4 052316Z 12009KT 29/15 A2998 RMK A01 T02890153  RH  043%=      5-min Rain = 0
KPD4 052317Z 12010KT 29/15 A2998 RMK A01 T02880153  RH  044%=      5-min Rain = 0
KPD4 052318Z 11008KT 29/15 A2998 RMK A01 T02860153  RH  044%=      5-min Rain = 0
KPD4 052319Z 11004KT 29/15 A2998 RMK A01 T02850152  RH  044%=      5-min Rain = 0
KPD4 052320Z 11004KT 28/15 A2998 RMK A01 T02840152  RH  044%=      5-min Rain = 0
KPD4 052321Z 14004KT 28/15 A2998 RMK A01 T02840153  RH  045%=      5-min Rain = 0
KPD4 052322Z 14006KT 28/15 A2998 RMK A01 T02840154  RH  045%=      5-min Rain = 0
KPD4 052323Z 13008KT 28/15 A2998 RMK A01 T02840154  RH  045%=      5-min Rain = 0
KPD4 052324Z 13008KT 28/15 A2998 RMK A01 T02840153  RH  045%=      5-min Rain = 0
KPD4 052325Z 14006KT 28/15 A2998 RMK A01 T02830153  RH  045%=      5-min Rain = 0
KPD4 052326Z 14006KT 28/15 A2998 RMK A01 T02830154  RH  045%=      5-min Rain = 0
KPD4 052327Z 13008KT 28/15 A2998 RMK A01 T02840154  RH  045%=      5-min Rain = 0
KPD4 052328Z 13007KT 28/15 A2998 RMK A01 T02830154  RH  045%=      5-min Rain = 0
KPD4 052329Z 14006KT 28/15 A2998 RMK A01 T02830154  RH  045%=      5-min Rain = 0
KPD4 052330Z 14007KT 28/15 A2998 RMK A01 T02830154  RH  046%=      5-min Rain = 0
KPD4 052331Z 14006KT 28/16 A2998 RMK A01 T02830156  RH  046%=      5-min Rain = 0
KPD4 052332Z 13008KT 28/16 A2998 RMK A01 T02820156  RH  046%=      5-min Rain = 0
KPD4 052333Z 14007KT 28/16 A2998 RMK A01 T02820155  RH  046%=      5-min Rain = 0
KPD4 052334Z 15007KT 28/15 A2998 RMK A01 T02820154  RH  046%=      5-min Rain = 0
KPD4 052335Z 14006KT 28/15 A2998 RMK A01 T02820154  RH  046%=      5-min Rain = 0
KPD4 052336Z 13006KT 28/15 A2998 RMK A01 T02810154  RH  046%=      5-min Rain = 0
KPD4 052337Z 11004KT 28/15 A2998 RMK A01 T02810154  RH  046%=      5-min Rain = 0
KPD4 052338Z 08004KT 28/16 A2999 RMK A01 T02810156  RH  046%=      5-min Rain = 0
KPD4 052339Z 03004KT 28/16 A2999 RMK A01 T02810157  RH  047%=      5-min Rain = 0
KPD4 052340Z 00004KT 28/16 A2999 RMK A01 T02810159  RH  047%=      5-min Rain = 0
KPD4 052341Z 01004KT 28/17 A2999 RMK A01 T02800174  RH  052%=      5-min Rain = 0
KPD4 052342Z 34004KT 28/18 A2999 RMK A01 T02770177  RH  054%=      5-min Rain = 0
KPD4 052343Z 27002KT 27/18 A2999 RMK A01 T02740176  RH  055%=      5-min Rain = 0
KPD4 052344Z 05002KT 27/18 A2999 RMK A01 T02730177  RH  056%=      5-min Rain = 0
KPD4 052345Z 04004KT 27/18 A2999 RMK A01 T02720178  RH  056%=      5-min Rain = 0
KPD4 052346Z 03005KT 27/18 A2999 RMK A01 T02710177  RH  056%=      5-min Rain = 0
KPD4 052347Z 02004KT 27/18 A2999 RMK A01 T02710176  RH  056%=      5-min Rain = 0
KPD4 052348Z 10004KT 27/17 A2999 RMK A01 T02720174  RH  055%=      5-min Rain = 0
KPD4 052349Z 08007KT 27/17 A2999 RMK A01 T02720167  RH  053%=      5-min Rain = 0
KPD4 052350Z 07006KT 27/17 A2999 RMK A01 T02730171  RH  054%=      5-min Rain = 0
KPD4 052351Z 06006KT 27/17 A2999 RMK A01 T02730173  RH  055%=      5-min Rain = 0
KPD4 052352Z 06003KT 27/17 A2999 RMK A01 T02720174  RH  055%=      5-min Rain = 0
KPD4 052353Z 03004KT 27/17 A2999 RMK A01 T02720174  RH  055%=      5-min Rain = 0
KPD4 052354Z 04005KT 27/17 A2999 RMK A01 T02720174  RH  055%=      5-min Rain = 0
KPD4 052355Z 05006G12KT 27/17 A2999 RMK A01 T02720170  RH  054%=      5-min Rain = 0
KPD4 052356Z 06010KT 27/17 A2999 RMK A01 T02730170  RH  053%=      5-min Rain = 0
KPD4 052357Z 06008KT 27/17 A2999 RMK A01 T02730173  RH  054%=      5-min Rain = 0
KPD4 052358Z 06008KT 27/17 A2999 RMK A01 T02730174  RH  055%=      5-min Rain = 0
KPD4 052359Z 06007KT 27/17 A2999 RMK A01 T02720174  RH  055%=      5-min Rain = 0
KPD4 060000Z 06007KT 27/17 A2999 RMK A01 T02720174  RH  055%=      5-min Rain = 0
KPD4 060001Z 06007KT 27/17 A2999 RMK A01 T02720174  RH  055%=      5-min Rain = 0
KPD4 060002Z 05008KT 27/17 A2999 RMK A01 T02720173  RH  055%=      5-min Rain = 0
KPD4 060003Z 05008KT 27/17 A2999 RMK A01 T02720173  RH  055%=      5-min Rain = 0
KPD4 060004Z 05008KT 27/17 A2999 RMK A01 T02720174  RH  055%=      5-min Rain = 0
KPD4 060005Z 04007KT 27/17 A2999 RMK A01 T02720174  RH  055%=      5-min Rain = 0
KPD4 060006Z 04008KT 27/17 A2999 RMK A01 T02720173  RH  055%=      5-min Rain = 0
KPD4 060007Z 05006KT 27/17 A2999 RMK A01 T02720172  RH  054%=      5-min Rain = 0
KPD4 060008Z 04006KT 27/17 A2998 RMK A01 T02710172  RH  055%=      5-min Rain = 0
KPD4 060009Z 03006KT 27/17 A2998 RMK A01 T02710174  RH  055%=      5-min Rain = 0
KPD4 060010Z 03007KT 27/18 A2998 RMK A01 T02710176  RH  056%=      5-min Rain = 0
KPD4 060011Z 04006KT 27/18 A2998 RMK A01 T02700181  RH  058%=      5-min Rain = 0
KPD4 060012Z 04005KT 27/19 A2998 RMK A01 T02670186  RH  061%=      5-min Rain = 0
KPD4 060013Z 06005KT 27/19 A2998 RMK A01 T02650187  RH  062%=      5-min Rain = 0
KPD4 060014Z 07004KT 26/18 A2998 RMK A01 T02630177  RH  059%=      5-min Rain = 0
KPD4 060015Z 08003KT 26/18 A2998 RMK A01 T02630178  RH  060%=      5-min Rain = 0
KPD4 060016Z 08003KT 26/18 A2998 RMK A01 T02620177  RH  059%=      5-min Rain = 0
KPD4 060017Z 08003KT 26/18 A2998 RMK A01 T02620182  RH  062%=      5-min Rain = 0
KPD4 060018Z 08005KT 26/19 A2998 RMK A01 T02610185  RH  063%=      5-min Rain = 0
KPD4 060019Z 10007KT 26/18 A2998 RMK A01 T02600182  RH  062%=      5-min Rain = 0
KPD4 060020Z 11005KT 26/18 A2998 RMK A01 T02600180  RH  061%=      5-min Rain = 0
KPD4 060021Z 10005KT 26/18 A2998 RMK A01 T02600181  RH  062%=      5-min Rain = 0
KPD4 060022Z 09006KT 26/18 A2997 RMK A01 T02590180  RH  062%=      5-min Rain = 0
KPD4 060023Z 08006KT 26/18 A2997 RMK A01 T02590178  RH  061%=      5-min Rain = 0
KPD4 060024Z 09006KT 26/18 A2997 RMK A01 T02590179  RH  061%=      5-min Rain = 0
KPD4 060025Z 08006KT 26/18 A2997 RMK A01 T02590180  RH  062%=      5-min Rain = 0
KPD4 060026Z 08007KT 26/18 A2997 RMK A01 T02580177  RH  061%=      5-min Rain = 0
KPD4 060027Z 09006KT 26/18 A2997 RMK A01 T02580175  RH  060%=      5-min Rain = 0
KPD4 060028Z 08006KT 26/18 A2998 RMK A01 T02590179  RH  061%=      5-min Rain = 0
KPD4 060029Z 08005KT 26/18 A2998 RMK A01 T02590179  RH  062%=      5-min Rain = 0
KPD4 060030Z 08005KT 26/18 A2998 RMK A01 T02580182  RH  063%=      5-min Rain = 0
KPD4 060031Z 08005KT 26/18 A2998 RMK A01 T02570181  RH  063%=      5-min Rain = 0
KPD4 060032Z 07006KT 26/18 A2998 RMK A01 T02570178  RH  062%=      5-min Rain = 0
KPD4 060033Z 08005KT 26/18 A2998 RMK A01 T02570179  RH  062%=      5-min Rain = 0
KPD4 060034Z 09003KT 26/18 A2998 RMK A01 T02580184  RH  064%=      5-min Rain = 0
KPD4 060035Z 10003KT 26/19 A2998 RMK A01 T02570185  RH  064%=      5-min Rain = 0
KPD4 060036Z 10004KT 26/19 A2998 RMK A01 T02560185  RH  065%=      5-min Rain = 0
KPD4 060037Z 10004KT 26/18 A2998 RMK A01 T02560180  RH  063%=      5-min Rain = 0
KPD4 060038Z 12005KT 26/17 A2998 RMK A01 T02560174  RH  061%=      5-min Rain = 0
KPD4 060039Z 13004KT 26/18 A2998 RMK A01 T02560177  RH  062%=      5-min Rain = 0
KPD4 060040Z 15003KT 26/17 A2998 RMK A01 T02560173  RH  060%=      5-min Rain = 0
KPD4 060041Z 15005KT 26/18 A2998 RMK A01 T02560175  RH  061%=      5-min Rain = 0
KPD4 060042Z 15004KT 26/17 A2998 RMK A01 T02560173  RH  060%=      5-min Rain = 0
KPD4 060043Z 14004KT 26/17 A2998 RMK A01 T02550172  RH  060%=      5-min Rain = 0
KPD4 060044Z 16003KT 25/17 A2998 RMK A01 T02540174  RH  061%=      5-min Rain = 0
KPD4 060045Z 18003KT 25/18 A2998 RMK A01 T02540175  RH  062%=      5-min Rain = 0
KPD4 060046Z 23003KT 25/18 A2998 RMK A01 T02540183  RH  065%=      5-min Rain = 0
KPD4 060047Z 28003KT 25/19 A2998 RMK A01 T02520194  RH  070%=      5-min Rain = 0
KPD4 060048Z 33003KT 25/20 A2998 RMK A01 T02470196  RH  073%=      5-min Rain = 0
KPD4 060049Z 33002KT 24/20 A2998 RMK A01 T02430195  RH  075%=      5-min Rain = 0
KPD4 060050Z 32002KT 24/20 A2998 RMK A01 T02410196  RH  076%=      5-min Rain = 0
KPD4 060051Z 33002KT 24/20 A2998 RMK A01 T02400195  RH  076%=      5-min Rain = 0
KPD4 060052Z 32004KT 24/20 A2998 RMK A01 T02390195  RH  076%=      5-min Rain = 0
KPD4 060053Z 32004KT 24/19 A2998 RMK A01 T02390189  RH  074%=      5-min Rain = 0
KPD4 060054Z 32005KT 24/19 A2998 RMK A01 T02390191  RH  074%=      5-min Rain = 0
KPD4 060055Z 31004KT 24/19 A2998 RMK A01 T02400190  RH  074%=      5-min Rain = 0
KPD4 060056Z 36003KT 24/19 A2998 RMK A01 T02400191  RH  074%=      5-min Rain = 0
KPD4 060057Z 34003KT 24/18 A2998 RMK A01 T02420180  RH  068%=      5-min Rain = 0
KPD4 060058Z 33004KT 24/19 A2998 RMK A01 T02440192  RH  073%=      5-min Rain = 0
KPD4 060059Z 34004KT 24/20 A2998 RMK A01 T02420196  RH  075%=      5-min Rain = 0
KPD4 060100Z 34004KT 24/20 A2998 RMK A01 T02410195  RH  076%=      5-min Rain = 0
KPD4 060101Z 34004KT 24/20 A2998 RMK A01 T02400197  RH  077%=      5-min Rain = 0
KPD4 060102Z 35004KT 24/20 A2998 RMK A01 T02390196  RH  077%=      5-min Rain = 0
KPD4 060103Z 36003KT 24/20 A2998 RMK A01 T02390196  RH  077%=      5-min Rain = 0
KPD4 060104Z 00002KT 24/20 A2998 RMK A01 T02390197  RH  077%=      5-min Rain = 0
KPD4 060105Z 01001KT 24/20 A2998 RMK A01 T02390195  RH  076%=      5-min Rain = 0
KPD4 060106Z 01001KT 24/20 A2998 RMK A01 T02390195  RH  076%=      5-min Rain = 0
KPD4 060107Z 01001KT 24/20 A2998 RMK A01 T02390195  RH  076%=      5-min Rain = 0
KPD4 060108Z 01001KT 24/19 A2998 RMK A01 T02380193  RH  076%=      5-min Rain = 0
KPD4 060109Z 02002KT 24/19 A2998 RMK A01 T02390193  RH  075%=      5-min Rain = 0
KPD4 060110Z 03001KT 24/20 A2998 RMK A01 T02390195  RH  076%=      5-min Rain = 0
KPD4 060111Z 04002KT 24/19 A2999 RMK A01 T02390193  RH  075%=      5-min Rain = 0
KPD4 060112Z 05002KT 24/20 A2999 RMK A01 T02400195  RH  076%=      5-min Rain = 0
KPD4 060113Z 05003KT 24/19 A2999 RMK A01 T02400193  RH  075%=      5-min Rain = 0
KPD4 060114Z 06002KT 24/19 A2999 RMK A01 T02410193  RH  075%=      5-min Rain = 0
KPD4 060115Z 10002KT 24/19 A2999 RMK A01 T02410194  RH  075%=      5-min Rain = 0
KPD4 060116Z 10003KT 24/19 A2999 RMK A01 T02410192  RH  074%=      5-min Rain = 0
KPD4 060117Z 10001KT 24/19 A2999 RMK A01 T02420191  RH  073%=      5-min Rain = 0
KPD4 060118Z 07002KT 24/19 A2999 RMK A01 T02430193  RH  074%=      5-min Rain = 0
KPD4 060119Z 05001KT 24/20 A2999 RMK A01 T02430197  RH  076%=      5-min Rain = 0
KPD4 060120Z 08002KT 24/20 A2999 RMK A01 T02420199  RH  077%=      5-min Rain = 0
KPD4 060121Z 08004KT 24/20 A2999 RMK A01 T02410196  RH  076%=      5-min Rain = 0
KPD4 060122Z 07004KT 24/19 A2999 RMK A01 T02420190  RH  073%=      5-min Rain = 0
KPD4 060123Z 00001KT 24/19 A2999 RMK A01 T02420194  RH  074%=      5-min Rain = 0
KPD4 060124Z 35001KT 24/20 A2999 RMK A01 T02410195  RH  075%=      5-min Rain = 0
KPD4 060125Z 34002KT 24/20 A2999 RMK A01 T02390196  RH  077%=      5-min Rain = 0
KPD4 060126Z 34003KT 24/20 A2999 RMK A01 T02380198  RH  078%=      5-min Rain = 0
KPD4 060127Z 33003KT 24/20 A2999 RMK A01 T02370199  RH  079%=      5-min Rain = 0
KPD4 060128Z 34003KT 24/20 A30 RMK A01 T02360198  RH  079%=      5-min Rain = 0
KPD4 060129Z 34003KT 24/20 A30 RMK A01 T02360197  RH  079%=      5-min Rain = 0
KPD4 060130Z 34003KT 24/20 A30 RMK A01 T02360196  RH  078%=      5-min Rain = 0
KPD4 060131Z 32003KT 24/20 A30 RMK A01 T02350200  RH  080%=      5-min Rain = 0
KPD4 060132Z 33003KT 23/20 A30 RMK A01 T02340202  RH  082%=      5-min Rain = 0
KPD4 060133Z 33002KT 23/20 A30 RMK A01 T02330203  RH  084%=      5-min Rain = 0
KPD4 060134Z 33004KT 23/20 A30 RMK A01 T02320203  RH  084%=      5-min Rain = 0
KPD4 060135Z 33004KT 23/20 A30 RMK A01 T02310200  RH  083%=      5-min Rain = 0
KPD4 060136Z 33005KT 23/20 A30 RMK A01 T02310201  RH  083%=      5-min Rain = 0
KPD4 060137Z 36004KT 23/20 A30 RMK A01 T02300200  RH  083%=      5-min Rain = 0
KPD4 060138Z 36004KT 23/20 A30 RMK A01 T02300198  RH  082%=      5-min Rain = 0
KPD4 060139Z 02004KT 23/20 A30 RMK A01 T02310195  RH  080%=      5-min Rain = 0
KPD4 060140Z 03004KT 23/19 A30 RMK A01 T02320194  RH  079%=      5-min Rain = 0
KPD4 060141Z 03003KT 23/19 A30 RMK A01 T02340189  RH  076%=      5-min Rain = 0
KPD4 060142Z 05005KT 24/19 A30 RMK A01 T02370189  RH  074%=      5-min Rain = 0
KPD4 060143Z 06004KT 24/19 A30 RMK A01 T02390188  RH  073%=      5-min Rain = 0
KPD4 060144Z 07004KT 24/19 A30 RMK A01 T02410190  RH  073%=      5-min Rain = 0
KPD4 060145Z 08006KT 24/19 A30 RMK A01 T02410187  RH  072%=      5-min Rain = 0
KPD4 060146Z 08006KT 24/19 A30 RMK A01 T02420185  RH  071%=      5-min Rain = 0
KPD4 060147Z 08005KT 24/19 A30 RMK A01 T02420185  RH  070%=      5-min Rain = 0
KPD4 060148Z 07005KT 24/19 A30 RMK A01 T02420185  RH  070%=      5-min Rain = 0
KPD4 060149Z 07004KT 24/19 A30 RMK A01 T02430185  RH  070%=      5-min Rain = 0
KPD4 060150Z 08005KT 24/19 A30 RMK A01 T02430185  RH  070%=      5-min Rain = 0
KPD4 060151Z 08004KT 24/19 A30 RMK A01 T02430185  RH  070%=      5-min Rain = 0
KPD4 060152Z 09004KT 24/19 A30 RMK A01 T02430185  RH  070%=      5-min Rain = 0
KPD4 060153Z 09004KT 24/18 A30 RMK A01 T02430184  RH  070%=      5-min Rain = 0
KPD4 060154Z 09004KT 24/18 A30 RMK A01 T02420184  RH  070%=      5-min Rain = 0
KPD4 060155Z 09004KT 24/18 A30 RMK A01 T02420183  RH  070%=      5-min Rain = 0
KPD4 060156Z 10005KT 24/18 A30 RMK A01 T02420184  RH  070%=      5-min Rain = 0
KPD4 060157Z 10004KT 24/18 A30 RMK A01 T02420184  RH  070%=      5-min Rain = 0
KPD4 060158Z 10004KT 24/19 A30 RMK A01 T02420185  RH  070%=      5-min Rain = 0
KPD4 060159Z 10004KT 24/18 A30 RMK A01 T02410184  RH  070%=      5-min Rain = 0
KPD4 060200Z 10004KT 24/18 A30 RMK A01 T02410184  RH  071%=      5-min Rain = 0
KPD4 060201Z 09004KT 24/19 A30 RMK A01 T02410185  RH  071%=      5-min Rain = 0
KPD4 060202Z 09005KT 24/18 A30 RMK A01 T02400184  RH  071%=      5-min Rain = 0
KPD4 060203Z 09005KT 24/18 A30 RMK A01 T02400184  RH  071%=      5-min Rain = 0
KPD4 060204Z 10005KT 24/18 A30 RMK A01 T02400184  RH  071%=      5-min Rain = 0
KPD4 060205Z 10005KT 24/18 A30 RMK A01 T02400183  RH  070%=      5-min Rain = 0
KPD4 060206Z 10004KT 24/18 A30 RMK A01 T02400183  RH  070%=      5-min Rain = 0
KPD4 060207Z 10005KT 24/18 A30 RMK A01 T02400183  RH  070%=      5-min Rain = 0
KPD4 060208Z 08004KT 24/18 A30 RMK A01 T02410184  RH  071%=      5-min Rain = 0
KPD4 060209Z 08004KT 24/18 A30 RMK A01 T02400183  RH  071%=      5-min Rain = 0
KPD4 060210Z 07003KT 24/18 A30 RMK A01 T02400182  RH  070%=      5-min Rain = 0
KPD4 060211Z 06002KT 24/18 A30 RMK A01 T02400182  RH  070%=      5-min Rain = 0
KPD4 060212Z 06002KT 24/18 A30 RMK A01 T02410182  RH  070%=      5-min Rain = 0
KPD4 060213Z 06002KT 24/18 A30 RMK A01 T02410183  RH  070%=      5-min Rain = 0
KPD4 060214Z 05003KT 24/18 A30 RMK A01 T02420184  RH  070%=      5-min Rain = 0
KPD4 060215Z 06003KT 24/18 A30 RMK A01 T02410183  RH  070%=      5-min Rain = 0
KPD4 060216Z 06003KT 24/18 A30 RMK A01 T02410183  RH  070%=      5-min Rain = 0
KPD4 060217Z 05003KT 24/18 A30 RMK A01 T02410182  RH  070%=      5-min Rain = 0
KPD4 060218Z 06003KT 24/18 A30 RMK A01 T02400182  RH  070%=      5-min Rain = 0
KPD4 060219Z 06003KT 24/18 A30 RMK A01 T02410182  RH  070%=      5-min Rain = 0
KPD4 060220Z 06003KT 24/18 A30 RMK A01 T02400181  RH  069%=      5-min Rain = 0
KPD4 060221Z 06003KT 24/18 A30 RMK A01 T02400182  RH  070%=      5-min Rain = 0
KPD4 060222Z 06003KT 24/18 A30 RMK A01 T02390180  RH  069%=      5-min Rain = 0
KPD4 060223Z 07003KT 24/18 A30 RMK A01 T02400180  RH  069%=      5-min Rain = 0
KPD4 060224Z 07003KT 24/18 A30 RMK A01 T02400180  RH  069%=      5-min Rain = 0
KPD4 060225Z 07003KT 24/18 A30 RMK A01 T02400180  RH  069%=      5-min Rain = 0
KPD4 060226Z 08003KT 24/18 A30 RMK A01 T02400179  RH  069%=      5-min Rain = 0
KPD4 060227Z 07002KT 24/18 A30 RMK A01 T02400180  RH  069%=      5-min Rain = 0
KPD4 060228Z 08003KT 24/18 A30 RMK A01 T02400179  RH  069%=      5-min Rain = 0
KPD4 060229Z 07003KT 24/18 A30 RMK A01 T02400178  RH  068%=      5-min Rain = 0
KPD4 060230Z 07004KT 24/18 A3001 RMK A01 T02400178  RH  068%=      5-min Rain = 0
KPD4 060231Z 06003KT 24/18 A3001 RMK A01 T02400177  RH  068%=      5-min Rain = 0
KPD4 060232Z 06003KT 24/18 A3001 RMK A01 T02400177  RH  068%=      5-min Rain = 0
KPD4 060233Z 06003KT 24/18 A3001 RMK A01 T02390176  RH  068%=      5-min Rain = 0
KPD4 060234Z 06003KT 24/18 A3001 RMK A01 T02400175  RH  067%=      5-min Rain = 0
KPD4 060235Z 06003KT 24/17 A3001 RMK A01 T02400174  RH  067%=      5-min Rain = 0
KPD4 060236Z 06003KT 24/17 A3001 RMK A01 T02400174  RH  067%=      5-min Rain = 0
KPD4 060237Z 06003KT 24/17 A3001 RMK A01 T02390174  RH  067%=      5-min Rain = 0
KPD4 060238Z 07003KT 24/17 A3001 RMK A01 T02400174  RH  066%=      5-min Rain = 0
KPD4 060239Z 07003KT 24/17 A3001 RMK A01 T02400173  RH  066%=      5-min Rain = 0
KPD4 060240Z 07003KT 24/17 A3001 RMK A01 T02410174  RH  066%=      5-min Rain = 0
KPD4 060241Z 07003KT 24/17 A3001 RMK A01 T02410173  RH  066%=      5-min Rain = 0
KPD4 060242Z 07003KT 24/17 A3001 RMK A01 T02410173  RH  066%=      5-min Rain = 0
KPD4 060243Z 07003KT 24/17 A3001 RMK A01 T02420174  RH  066%=      5-min Rain = 0
KPD4 060244Z 07003KT 24/17 A3001 RMK A01 T02420173  RH  065%=      5-min Rain = 0
KPD4 060245Z 06004KT 24/17 A3001 RMK A01 T02410174  RH  066%=      5-min Rain = 0
KPD4 060246Z 06004KT 24/17 A3001 RMK A01 T02410174  RH  066%=      5-min Rain = 0
KPD4 060247Z 05004KT 24/17 A3001 RMK A01 T02400172  RH  066%=      5-min Rain = 0
KPD4 060248Z 05004KT 24/17 A3001 RMK A01 T02400172  RH  066%=      5-min Rain = 0
KPD4 060249Z 05003KT 24/17 A3001 RMK A01 T02390171  RH  066%=      5-min Rain = 0
KPD4 060250Z 05003KT 24/17 A3001 RMK A01 T02390170  RH  065%=      5-min Rain = 0
KPD4 060251Z 05003KT 24/17 A3001 RMK A01 T02390170  RH  065%=      5-min Rain = 0
KPD4 060252Z 05003KT 24/17 A3001 RMK A01 T02390170  RH  065%=      5-min Rain = 0
KPD4 060253Z 05002KT 24/17 A3001 RMK A01 T02380168  RH  065%=      5-min Rain = 0
KPD4 060254Z 04003KT 24/17 A3002 RMK A01 T02380168  RH  065%=      5-min Rain = 0
KPD4 060255Z 04002KT 24/17 A3002 RMK A01 T02380168  RH  065%=      5-min Rain = 0
KPD4 060256Z 03002KT 24/17 A3002 RMK A01 T02380169  RH  065%=      5-min Rain = 0
KPD4 060257Z 02002KT 24/17 A3002 RMK A01 T02380170  RH  066%=      5-min Rain = 0
KPD4 060258Z 01002KT 24/17 A3002 RMK A01 T02370171  RH  066%=      5-min Rain = 0
KPD4 060259Z 35003KT 24/17 A3002 RMK A01 T02360171  RH  067%=      5-min Rain = 0
KPD4 060300Z 32005KT 23/18 A3002 RMK A01 T02320179  RH  072%=      5-min Rain = 0
KPD4 060301Z 33004KT 23/18 A3002 RMK A01 T02270179  RH  074%=      5-min Rain = 0
KPD4 060302Z 32005KT 22/18 A3002 RMK A01 T02240177  RH  075%=      5-min Rain = 0
KPD4 060303Z 32005KT 22/18 A3002 RMK A01 T02230179  RH  076%=      5-min Rain = 0
KPD4 060304Z 32006KT 22/18 A3002 RMK A01 T02210180  RH  078%=      5-min Rain = 0
KPD4 060305Z 33005KT 22/18 A3002 RMK A01 T02200182  RH  079%=      5-min Rain = 0
KPD4 060306Z 33005KT 22/18 A3002 RMK A01 T02190182  RH  079%=      5-min Rain = 0
KPD4 060307Z 33006KT 22/18 A3002 RMK A01 T02190183  RH  080%=      5-min Rain = 0
KPD4 060308Z 33006KT 22/18 A3002 RMK A01 T02180184  RH  081%=      5-min Rain = 0
KPD4 060309Z 33006KT 22/18 A3002 RMK A01 T02180184  RH  081%=      5-min Rain = 0
KPD4 060310Z 33006KT 22/19 A3002 RMK A01 T02170185  RH  082%=      5-min Rain = 0
KPD4 060311Z 33006KT 22/19 A3002 RMK A01 T02160186  RH  083%=      5-min Rain = 0
KPD4 060312Z 34006KT 22/19 A3002 RMK A01 T02150186  RH  084%=      5-min Rain = 0
KPD4 060313Z 34006KT 21/19 A3003 RMK A01 T02140187  RH  085%=      5-min Rain = 0
KPD4 060314Z 34006KT 21/19 A3003 RMK A01 T02130188  RH  086%=      5-min Rain = 0
KPD4 060315Z 34006KT 21/19 A3003 RMK A01 T02120188  RH  086%=      5-min Rain = 0
KPD4 060316Z 34006KT 21/19 A3003 RMK A01 T02120188  RH  086%=      5-min Rain = 0
KPD4 060317Z 34006KT 21/19 A3003 RMK A01 T02120188  RH  086%=      5-min Rain = 0
KPD4 060318Z 35006KT 21/19 A3003 RMK A01 T02120187  RH  086%=      5-min Rain = 0
KPD4 060319Z 35006KT 21/19 A3003 RMK A01 T02120187  RH  085%=      5-min Rain = 0
KPD4 060320Z 35007KT 21/19 A3003 RMK A01 T02130187  RH  085%=      5-min Rain = 0
KPD4 060321Z 34008KT 21/19 A3003 RMK A01 T02130188  RH  085%=      5-min Rain = 0
KPD4 060322Z 34008KT 21/19 A3003 RMK A01 T02130188  RH  086%=      5-min Rain = 0
KPD4 060323Z 34009KT 21/19 A3003 RMK A01 T02120188  RH  086%=      5-min Rain = 0
KPD4 060324Z 34009KT 21/19 A3003 RMK A01 T02120189  RH  086%=      5-min Rain = 0
KPD4 060325Z 34009KT 21/19 A3003 RMK A01 T02120189  RH  087%=      5-min Rain = 0
KPD4 060326Z 34010KT 21/19 A3003 RMK A01 T02110189  RH  087%=      5-min Rain = 0
KPD4 060327Z 34009KT 21/19 A3003 RMK A01 T02110190  RH  087%=      5-min Rain = 0
KPD4 060328Z 34009KT 21/19 A3003 RMK A01 T02110190  RH  087%=      5-min Rain = 0
KPD4 060329Z 34009KT 21/19 A3003 RMK A01 T02110190  RH  088%=      5-min Rain = 0
KPD4 060330Z 34009KT 21/19 A3004 RMK A01 T02110190  RH  088%=      5-min Rain = 0
KPD4 060331Z 34010KT 21/19 A3004 RMK A01 T02110190  RH  088%=      5-min Rain = 0
KPD4 060332Z 34009KT 21/19 A3004 RMK A01 T02100190  RH  088%=      5-min Rain = 0
KPD4 060333Z 34010KT 21/19 A3004 RMK A01 T02100189  RH  088%=      5-min Rain = 0
KPD4 060334Z 34010KT 21/19 A3004 RMK A01 T02100189  RH  088%=      5-min Rain = 0
KPD4 060335Z 34010KT 21/19 A3004 RMK A01 T02100189  RH  088%=      5-min Rain = 0
KPD4 060336Z 34009KT 21/19 A3004 RMK A01 T02100188  RH  087%=      5-min Rain = 0
KPD4 060337Z 34009KT 21/19 A3004 RMK A01 T02100188  RH  087%=      5-min Rain = 0
KPD4 060338Z 34009KT 21/19 A3004 RMK A01 T02100187  RH  087%=      5-min Rain = 0
KPD4 060339Z 34009KT 21/19 A3004 RMK A01 T02100187  RH  087%=      5-min Rain = 0
KPD4 060340Z 34009KT 21/19 A3004 RMK A01 T02100187  RH  087%=      5-min Rain = 0
KPD4 060341Z 34009KT 21/19 A3004 RMK A01 T02100187  RH  087%=      5-min Rain = 0
KPD4 060342Z 34009KT 21/19 A3004 RMK A01 T02100188  RH  087%=      5-min Rain = 0
KPD4 060343Z 34009KT 21/19 A3004 RMK A01 T02100187  RH  087%=      5-min Rain = 0
KPD4 060344Z 34009KT 21/19 A3004 RMK A01 T02100187  RH  087%=      5-min Rain = 0
KPD4 060345Z 34009KT 21/19 A3004 RMK A01 T02100188  RH  087%=      5-min Rain = 0
KPD4 060346Z 33009KT 21/19 A3004 RMK A01 T02090188  RH  088%=      5-min Rain = 0
KPD4 060347Z 33009KT 21/19 A3004 RMK A01 T02080188  RH  088%=      5-min Rain = 0
KPD4 060348Z 34009KT 21/19 A3004 RMK A01 T02080187  RH  088%=      5-min Rain = 0
KPD4 060349Z 33008KT 21/19 A3004 RMK A01 T02080188  RH  088%=      5-min Rain = 0
KPD4 060350Z 33008KT 21/19 A3004 RMK A01 T02080187  RH  088%=      5-min Rain = 0
KPD4 060351Z 33008KT 21/19 A3004 RMK A01 T02070187  RH  088%=      5-min Rain = 0
KPD4 060352Z 33008KT 21/19 A3004 RMK A01 T02070187  RH  089%=      5-min Rain = 0
KPD4 060353Z 33007KT 21/19 A3004 RMK A01 T02060187  RH  089%=      5-min Rain = 0
KPD4 060354Z 33007KT 21/19 A3004 RMK A01 T02060187  RH  089%=      5-min Rain = 0
KPD4 060355Z 33008KT 21/19 A3004 RMK A01 T02050187  RH  089%=      5-min Rain = 0
KPD4 060356Z 33008KT 20/19 A3004 RMK A01 T02040186  RH  090%=      5-min Rain = 0
KPD4 060357Z 33008KT 20/19 A3004 RMK A01 T02040187  RH  090%=      5-min Rain = 0
KPD4 060358Z 33008KT 20/19 A3005 RMK A01 T02040187  RH  090%=      5-min Rain = 0
KPD4 060359Z 33007KT 20/19 A3005 RMK A01 T02040187  RH  090%=      5-min Rain = 0
KPD4 060400Z 33008KT 20/19 A3005 RMK A01 T02040187  RH  090%=      5-min Rain = 0
KPD4 060401Z 34008KT 20/19 A3005 RMK A01 T02040187  RH  090%=      5-min Rain = 0
KPD4 060402Z 34007KT 20/19 A3005 RMK A01 T02030186  RH  090%=      5-min Rain = 0
KPD4 060403Z 34007KT 20/19 A3005 RMK A01 T02030186  RH  090%=      5-min Rain = 0
KPD4 060404Z 34007KT 20/19 A3005 RMK A01 T02030186  RH  090%=      5-min Rain = 0
KPD4 060405Z 34007KT 20/19 A3005 RMK A01 T02030186  RH  090%=      5-min Rain = 0
KPD4 060406Z 34006KT 20/19 A3005 RMK A01 T02020186  RH  090%=      5-min Rain = 0
KPD4 060407Z 34006KT 20/19 A3005 RMK A01 T02030186  RH  090%=      5-min Rain = 0
KPD4 060408Z 34006KT 20/19 A3005 RMK A01 T02030186  RH  090%=      5-min Rain = 0
KPD4 060409Z 34007KT 20/19 A3005 RMK A01 T02030186  RH  090%=      5-min Rain = 0
KPD4 060410Z 33007KT 20/19 A3005 RMK A01 T02030186  RH  090%=      5-min Rain = 0
KPD4 060411Z 33007KT 20/19 A3005 RMK A01 T02020186  RH  090%=      5-min Rain = 0
KPD4 060412Z 33007KT 20/19 A3005 RMK A01 T02020186  RH  090%=      5-min Rain = 0
KPD4 060413Z 33007KT 20/19 A3005 RMK A01 T02020186  RH  090%=      5-min Rain = 0
KPD4 060414Z 33007KT 20/19 A3005 RMK A01 T02020186  RH  090%=      5-min Rain = 0
KPD4 060415Z 33007KT 20/19 A3005 RMK A01 T02020186  RH  090%=      5-min Rain = 0
KPD4 060416Z 33007KT 20/19 A3005 RMK A01 T02020186  RH  090%=      5-min Rain = 0
KPD4 060417Z 34007KT 20/19 A3005 RMK A01 T02020186  RH  090%=      5-min Rain = 0
KPD4 060418Z 34007KT 20/19 A3005 RMK A01 T02020186  RH  091%=      5-min Rain = 0
KPD4 060419Z 34007KT 20/19 A3005 RMK A01 T02020186  RH  091%=      5-min Rain = 0
KPD4 060420Z 34007KT 20/19 A3005 RMK A01 T02020186  RH  091%=      5-min Rain = 0
KPD4 060421Z 34007KT 20/19 A3005 RMK A01 T02020187  RH  091%=      5-min Rain = 0
KPD4 060422Z 34007KT 20/19 A3005 RMK A01 T02030187  RH  091%=      5-min Rain = 0
KPD4 060423Z 34007KT 20/19 A3005 RMK A01 T02030187  RH  090%=      5-min Rain = 0
KPD4 060424Z 34007KT 20/19 A3005 RMK A01 T02040187  RH  090%=      5-min Rain = 0
KPD4 060425Z 34007KT 20/19 A3005 RMK A01 T02040187  RH  090%=      5-min Rain = 0
KPD4 060426Z 34006KT 20/19 A3005 RMK A01 T02040187  RH  090%=      5-min Rain = 0
KPD4 060427Z 34006KT 20/19 A3005 RMK A01 T02040187  RH  090%=      5-min Rain = 0
KPD4 060428Z 34006KT 21/19 A3005 RMK A01 T02050187  RH  089%=      5-min Rain = 0
KPD4 060429Z 34006KT 21/19 A3005 RMK A01 T02050187  RH  089%=      5-min Rain = 0
KPD4 060430Z 33006KT 21/19 A3005 RMK A01 T02050187  RH  089%=      5-min Rain = 0
KPD4 060431Z 33006KT 21/19 A3005 RMK A01 T02050187  RH  089%=      5-min Rain = 0
KPD4 060432Z 33007KT 21/19 A3005 RMK A01 T02050187  RH  089%=      5-min Rain = 0
KPD4 060433Z 33007KT 21/19 A3005 RMK A01 T02050187  RH  089%=      5-min Rain = 0
KPD4 060434Z 33006KT 21/19 A3005 RMK A01 T02050187  RH  089%=      5-min Rain = 0
KPD4 060435Z 33006KT 21/19 A3004 RMK A01 T02050187  RH  090%=      5-min Rain = 0
KPD4 060436Z 33006KT 21/19 A3004 RMK A01 T02050188  RH  090%=      5-min Rain = 0
KPD4 060437Z 33006KT 21/19 A3004 RMK A01 T02050187  RH  090%=      5-min Rain = 0
KPD4 060438Z 33006KT 21/19 A3004 RMK A01 T02050187  RH  090%=      5-min Rain = 0
KPD4 060439Z 34006KT 21/19 A3004 RMK A01 T02050187  RH  089%=      5-min Rain = 0
KPD4 060440Z 34006KT 21/19 A3004 RMK A01 T02050187  RH  089%=      5-min Rain = 0
KPD4 060441Z 34006KT 21/19 A3004 RMK A01 T02050187  RH  089%=      5-min Rain = 0
KPD4 060442Z 35005KT 21/19 A3004 RMK A01 T02050187  RH  089%=      5-min Rain = 0
KPD4 060443Z 03003KT 21/19 A3004 RMK A01 T02050187  RH  089%=      5-min Rain = 0
KPD4 060444Z 03003KT 21/19 A3004 RMK A01 T02050187  RH  090%=      5-min Rain = 0
KPD4 060445Z 01004KT 21/19 A3004 RMK A01 T02050187  RH  090%=      5-min Rain = 0
KPD4 060446Z 00004KT 20/19 A3004 RMK A01 T02040187  RH  090%=      5-min Rain = 0
KPD4 060447Z 01004KT 20/19 A3004 RMK A01 T02040187  RH  089%=      5-min Rain = 0
KPD4 060448Z 02004KT 20/19 A3004 RMK A01 T02040186  RH  089%=      5-min Rain = 0
KPD4 060449Z 01004KT 20/19 A3004 RMK A01 T02040186  RH  089%=      5-min Rain = 0
KPD4 060450Z 00005KT 21/19 A3004 RMK A01 T02050186  RH  089%=      5-min Rain = 0
KPD4 060451Z 01005KT 21/19 A3004 RMK A01 T02050186  RH  089%=      5-min Rain = 0
KPD4 060452Z 01005KT 21/19 A3005 RMK A01 T02060185  RH  088%=      5-min Rain = 0
KPD4 060453Z 02005KT 21/19 A3005 RMK A01 T02060185  RH  088%=      5-min Rain = 0
KPD4 060454Z 01004KT 21/19 A3005 RMK A01 T02070185  RH  087%=      5-min Rain = 0
KPD4 060455Z 02004KT 21/19 A3005 RMK A01 T02080185  RH  087%=      5-min Rain = 0
KPD4 060456Z 02004KT 21/19 A3005 RMK A01 T02080185  RH  086%=      5-min Rain = 0
KPD4 060457Z 02004KT 21/18 A3005 RMK A01 T02090184  RH  086%=      5-min Rain = 0
KPD4 060458Z 01004KT 21/18 A3005 RMK A01 T02090184  RH  086%=      5-min Rain = 0
KPD4 060459Z 01004KT 21/18 A3005 RMK A01 T02090184  RH  086%=      5-min Rain = 0

Page generated in 0.1232 seconds.